<?xml version='1.0' encoding='UTF-8'?><gpx version="1.1" creator="JPX - https://github.com/jenetics/jpx" xmlns="http://www.topografix.com/GPX/1/1"><trk><trkseg><trkpt lat="43.7728133" lon="11.2593517"><ele>58.0</ele><time>2026-05-04T07:12:02.392Z</time></trkpt><trkpt lat="43.7727533" lon="11.2593033"><ele>58.0</ele><time>2026-05-04T07:12:05.392Z</time></trkpt><trkpt lat="43.7726333" lon="11.2591767"><ele>58.0</ele><time>2026-05-04T07:12:10.392Z</time></trkpt><trkpt lat="43.772575" lon="11.2591167"><ele>58.0</ele><time>2026-05-04T07:12:13.392Z</time></trkpt><trkpt lat="43.7725167" lon="11.2590567"><ele>58.0</ele><time>2026-05-04T07:12:17.392Z</time></trkpt><trkpt lat="43.7725117" lon="11.2589367"><ele>57.83333333333333</ele><time>2026-05-04T07:12:20.392Z</time></trkpt><trkpt lat="43.7725533" lon="11.2588517"><ele>57.666666666666664</ele><time>2026-05-04T07:12:23.392Z</time></trkpt><trkpt lat="43.7725833" lon="11.2587483"><ele>57.5</ele><time>2026-05-04T07:12:26.392Z</time></trkpt><trkpt lat="43.7725867" lon="11.2586333"><ele>57.33333333333333</ele><time>2026-05-04T07:12:29.392Z</time></trkpt><trkpt lat="43.7725783" lon="11.2585383"><ele>57.166666666666664</ele><time>2026-05-04T07:12:32.392Z</time></trkpt><trkpt lat="43.7725833" lon="11.2584133"><ele>57.0</ele><time>2026-05-04T07:12:35.392Z</time></trkpt><trkpt lat="43.7726017" lon="11.2582917"><ele>57.0</ele><time>2026-05-04T07:12:38.392Z</time></trkpt><trkpt lat="43.7726217" lon="11.2581833"><ele>57.0</ele><time>2026-05-04T07:12:40.392Z</time></trkpt><trkpt lat="43.7726317" lon="11.258065"><ele>57.0</ele><time>2026-05-04T07:12:42.392Z</time></trkpt><trkpt lat="43.7726233" lon="11.2579517"><ele>57.0</ele><time>2026-05-04T07:12:45.392Z</time></trkpt><trkpt lat="43.772635" lon="11.2578533"><ele>57.0</ele><time>2026-05-04T07:12:48.392Z</time></trkpt><trkpt lat="43.7726417" lon="11.257755"><ele>57.0</ele><time>2026-05-04T07:12:53.392Z</time></trkpt><trkpt lat="43.7726483" lon="11.2576433"><ele>58.333333333333336</ele><time>2026-05-04T07:12:57.392Z</time></trkpt><trkpt lat="43.772655" lon="11.2575433"><ele>59.66666666666667</ele><time>2026-05-04T07:13:00.392Z</time></trkpt><trkpt lat="43.7726633" lon="11.2574267"><ele>61.0</ele><time>2026-05-04T07:13:03.392Z</time></trkpt><trkpt lat="43.7726683" lon="11.257325"><ele>62.333333333333336</ele><time>2026-05-04T07:13:05.392Z</time></trkpt><trkpt lat="43.7726733" lon="11.257225"><ele>63.66666666666667</ele><time>2026-05-04T07:13:07.392Z</time></trkpt><trkpt lat="43.7726817" lon="11.2570867"><ele>65.0</ele><time>2026-05-04T07:13:10.392Z</time></trkpt><trkpt lat="43.7726867" lon="11.2569867"><ele>65.5</ele><time>2026-05-04T07:13:12.392Z</time></trkpt><trkpt lat="43.7726917" lon="11.256885"><ele>66.0</ele><time>2026-05-04T07:13:14.392Z</time></trkpt><trkpt lat="43.7726917" lon="11.2567583"><ele>66.5</ele><time>2026-05-04T07:13:17.392Z</time></trkpt><trkpt lat="43.7726917" lon="11.2566583"><ele>67.0</ele><time>2026-05-04T07:13:19.392Z</time></trkpt><trkpt lat="43.772685" lon="11.25656"><ele>67.5</ele><time>2026-05-04T07:13:22.392Z</time></trkpt><trkpt lat="43.77269" lon="11.2564633"><ele>68.0</ele><time>2026-05-04T07:13:24.392Z</time></trkpt><trkpt lat="43.7726967" lon="11.256355"><ele>68.5</ele><time>2026-05-04T07:13:26.393Z</time></trkpt><trkpt lat="43.7727017" lon="11.256255"><ele>69.0</ele><time>2026-05-04T07:13:28.392Z</time></trkpt><trkpt lat="43.7726967" lon="11.2561183"><ele>69.5</ele><time>2026-05-04T07:13:31.392Z</time></trkpt><trkpt lat="43.772675" lon="11.2560267"><ele>70.0</ele><time>2026-05-04T07:13:33.392Z</time></trkpt><trkpt lat="43.7726767" lon="11.255935"><ele>70.5</ele><time>2026-05-04T07:13:35.392Z</time></trkpt><trkpt lat="43.7727033" lon="11.2558317"><ele>71.0</ele><time>2026-05-04T07:13:37.392Z</time></trkpt><trkpt lat="43.7726767" lon="11.2557383"><ele>71.0</ele><time>2026-05-04T07:13:39.392Z</time></trkpt><trkpt lat="43.7726667" lon="11.25564"><ele>71.0</ele><time>2026-05-04T07:13:41.392Z</time></trkpt><trkpt lat="43.7726767" lon="11.2555267"><ele>71.0</ele><time>2026-05-04T07:13:44.392Z</time></trkpt><trkpt lat="43.772675" lon="11.2554233"><ele>71.0</ele><time>2026-05-04T07:13:47.392Z</time></trkpt><trkpt lat="43.7726117" lon="11.2553667"><ele>71.0</ele><time>2026-05-04T07:13:53.392Z</time></trkpt><trkpt lat="43.7725483" lon="11.255345"><ele>71.0</ele><time>2026-05-04T07:13:55.392Z</time></trkpt><trkpt lat="43.7724783" lon="11.2553667"><ele>71.0</ele><time>2026-05-04T07:14:01.392Z</time></trkpt><trkpt lat="43.7723867" lon="11.2553967"><ele>70.0</ele><time>2026-05-04T07:14:04.393Z</time></trkpt><trkpt lat="43.77231" lon="11.2553517"><ele>69.0</ele><time>2026-05-04T07:14:06.392Z</time></trkpt><trkpt lat="43.77225" lon="11.25538"><ele>68.0</ele><time>2026-05-04T07:14:08.392Z</time></trkpt><trkpt lat="43.7721817" lon="11.25536"><ele>67.0</ele><time>2026-05-04T07:14:14.392Z</time></trkpt><trkpt lat="43.7720717" lon="11.2553717"><ele>66.0</ele><time>2026-05-04T07:14:18.392Z</time></trkpt><trkpt lat="43.7719867" lon="11.2553883"><ele>65.0</ele><time>2026-05-04T07:14:21.392Z</time></trkpt><trkpt lat="43.77192" lon="11.255345"><ele>65.0</ele><time>2026-05-04T07:14:23.392Z</time></trkpt><trkpt lat="43.7718583" lon="11.2553017"><ele>65.0</ele><time>2026-05-04T07:14:25.392Z</time></trkpt><trkpt lat="43.7717717" lon="11.2552967"><ele>65.0</ele><time>2026-05-04T07:14:27.392Z</time></trkpt><trkpt lat="43.7717133" lon="11.2553983"><ele>65.0</ele><time>2026-05-04T07:14:30.393Z</time></trkpt><trkpt lat="43.771645" lon="11.2554017"><ele>65.0</ele><time>2026-05-04T07:14:32.392Z</time></trkpt><trkpt lat="43.7715683" lon="11.2554"><ele>65.0</ele><time>2026-05-04T07:14:38.392Z</time></trkpt><trkpt lat="43.77154" lon="11.255315"><ele>64.8</ele><time>2026-05-04T07:14:41.393Z</time></trkpt><trkpt lat="43.7715217" lon="11.2551683"><ele>64.6</ele><time>2026-05-04T07:14:44.392Z</time></trkpt><trkpt lat="43.7715" lon="11.2550617"><ele>64.4</ele><time>2026-05-04T07:14:46.392Z</time></trkpt><trkpt lat="43.7714933" lon="11.2549383"><ele>64.2</ele><time>2026-05-04T07:14:48.392Z</time></trkpt><trkpt lat="43.7715033" lon="11.2548067"><ele>64.0</ele><time>2026-05-04T07:14:50.392Z</time></trkpt><trkpt lat="43.771495" lon="11.2546733"><ele>63.99999999999999</ele><time>2026-05-04T07:14:52.392Z</time></trkpt><trkpt lat="43.77147" lon="11.2545417"><ele>64.0</ele><time>2026-05-04T07:14:54.393Z</time></trkpt><trkpt lat="43.7714133" lon="11.2544583"><ele>64.0</ele><time>2026-05-04T07:14:57.392Z</time></trkpt><trkpt lat="43.771435" lon="11.2543617"><ele>64.0</ele><time>2026-05-04T07:14:59.392Z</time></trkpt><trkpt lat="43.77149" lon="11.254275"><ele>63.99999999999999</ele><time>2026-05-04T07:15:03.392Z</time></trkpt><trkpt lat="43.7714967" lon="11.2541633"><ele>64.0</ele><time>2026-05-04T07:15:06.392Z</time></trkpt><trkpt lat="43.7714917" lon="11.2540667"><ele>64.5</ele><time>2026-05-04T07:15:08.392Z</time></trkpt><trkpt lat="43.7714883" lon="11.2539417"><ele>65.0</ele><time>2026-05-04T07:15:11.393Z</time></trkpt><trkpt lat="43.7714833" lon="11.2538517"><ele>65.5</ele><time>2026-05-04T07:15:13.392Z</time></trkpt><trkpt lat="43.7714617" lon="11.25373"><ele>66.0</ele><time>2026-05-04T07:15:16.392Z</time></trkpt><trkpt lat="43.77144" lon="11.2536317"><ele>66.5</ele><time>2026-05-04T07:15:18.392Z</time></trkpt><trkpt lat="43.7714133" lon="11.2535517"><ele>67.0</ele><time>2026-05-04T07:15:20.393Z</time></trkpt><trkpt lat="43.7714267" lon="11.253435"><ele>67.0</ele><time>2026-05-04T07:15:23.392Z</time></trkpt><trkpt lat="43.7714583" lon="11.2533583"><ele>67.0</ele><time>2026-05-04T07:15:25.392Z</time></trkpt><trkpt lat="43.7714983" lon="11.253275"><ele>67.0</ele><time>2026-05-04T07:15:28.392Z</time></trkpt><trkpt lat="43.7715067" lon="11.25314"><ele>67.0</ele><time>2026-05-04T07:15:35.391Z</time></trkpt><trkpt lat="43.7714433" lon="11.2531083"><ele>67.0</ele><time>2026-05-04T07:15:38.391Z</time></trkpt><trkpt lat="43.7714317" lon="11.2529867"><ele>67.0</ele><time>2026-05-04T07:15:40.391Z</time></trkpt><trkpt lat="43.77139" lon="11.25292"><ele>66.57142857142857</ele><time>2026-05-04T07:15:45.391Z</time></trkpt><trkpt lat="43.771335" lon="11.2528733"><ele>66.14285714285714</ele><time>2026-05-04T07:15:49.391Z</time></trkpt><trkpt lat="43.77127" lon="11.25285"><ele>65.71428571428571</ele><time>2026-05-04T07:15:50.391Z</time></trkpt><trkpt lat="43.7712" lon="11.2527967"><ele>65.28571428571428</ele><time>2026-05-04T07:15:52.391Z</time></trkpt><trkpt lat="43.7711383" lon="11.25276"><ele>64.85714285714285</ele><time>2026-05-04T07:15:56.391Z</time></trkpt><trkpt lat="43.7711233" lon="11.25267"><ele>64.42857142857143</ele><time>2026-05-04T07:16:00.391Z</time></trkpt><trkpt lat="43.7710633" lon="11.252575"><ele>64.0</ele><time>2026-05-04T07:16:04.391Z</time></trkpt><trkpt lat="43.7709983" lon="11.2523833"><ele>63.99999999999999</ele><time>2026-05-04T07:16:09.392Z</time></trkpt><trkpt lat="43.77098" lon="11.2522917"><ele>64.0</ele><time>2026-05-04T07:16:11.392Z</time></trkpt><trkpt lat="43.7709217" lon="11.2522533"><ele>64.0</ele><time>2026-05-04T07:16:15.392Z</time></trkpt><trkpt lat="43.7708967" lon="11.252165"><ele>64.0</ele><time>2026-05-04T07:16:22.391Z</time></trkpt><trkpt lat="43.7708317" lon="11.2521417"><ele>63.99999999999999</ele><time>2026-05-04T07:16:24.391Z</time></trkpt><trkpt lat="43.7706833" lon="11.2521333"><ele>64.0</ele><time>2026-05-04T07:16:28.391Z</time></trkpt><trkpt lat="43.7706" lon="11.2521267"><ele>64.16666666666666</ele><time>2026-05-04T07:16:31.391Z</time></trkpt><trkpt lat="43.770535" lon="11.2521383"><ele>64.33333333333333</ele><time>2026-05-04T07:16:34.391Z</time></trkpt><trkpt lat="43.7704233" lon="11.2521367"><ele>64.5</ele><time>2026-05-04T07:16:37.391Z</time></trkpt><trkpt lat="43.770355" lon="11.252105"><ele>64.66666666666667</ele><time>2026-05-04T07:16:40.391Z</time></trkpt><trkpt lat="43.7702983" lon="11.2520483"><ele>64.83333333333334</ele><time>2026-05-04T07:16:43.391Z</time></trkpt><trkpt lat="43.770265" lon="11.2519717"><ele>65.0</ele><time>2026-05-04T07:16:49.392Z</time></trkpt><trkpt lat="43.7702383" lon="11.2518417"><ele>65.0</ele><time>2026-05-04T07:16:51.391Z</time></trkpt><trkpt lat="43.7701983" lon="11.2517583"><ele>65.0</ele><time>2026-05-04T07:16:52.391Z</time></trkpt><trkpt lat="43.7701783" lon="11.2516433"><ele>65.0</ele><time>2026-05-04T07:16:54.391Z</time></trkpt><trkpt lat="43.770175" lon="11.251505"><ele>65.0</ele><time>2026-05-04T07:16:57.391Z</time></trkpt><trkpt lat="43.7701517" lon="11.25142"><ele>65.0</ele><time>2026-05-04T07:16:59.391Z</time></trkpt><trkpt lat="43.7701333" lon="11.251335"><ele>65.0</ele><time>2026-05-04T07:17:01.391Z</time></trkpt><trkpt lat="43.77009" lon="11.2512183"><ele>63.85714285714286</ele><time>2026-05-04T07:17:03.391Z</time></trkpt><trkpt lat="43.77004" lon="11.2511483"><ele>62.714285714285715</ele><time>2026-05-04T07:17:05.391Z</time></trkpt><trkpt lat="43.7699783" lon="11.2511067"><ele>61.57142857142857</ele><time>2026-05-04T07:17:08.391Z</time></trkpt><trkpt lat="43.7699667" lon="11.25102"><ele>60.42857142857143</ele><time>2026-05-04T07:17:11.391Z</time></trkpt><trkpt lat="43.7699017" lon="11.2509567"><ele>59.28571428571428</ele><time>2026-05-04T07:17:13.392Z</time></trkpt><trkpt lat="43.769845" lon="11.2508967"><ele>58.14285714285714</ele><time>2026-05-04T07:17:15.391Z</time></trkpt><trkpt lat="43.7697767" lon="11.2509133"><ele>57.0</ele><time>2026-05-04T07:17:17.391Z</time></trkpt><trkpt lat="43.769685" lon="11.25089"><ele>57.0</ele><time>2026-05-04T07:17:20.391Z</time></trkpt><trkpt lat="43.7696267" lon="11.2508233"><ele>57.0</ele><time>2026-05-04T07:17:22.391Z</time></trkpt><trkpt lat="43.7695517" lon="11.250765"><ele>57.0</ele><time>2026-05-04T07:17:25.391Z</time></trkpt><trkpt lat="43.76949" lon="11.250735"><ele>57.0</ele><time>2026-05-04T07:17:27.391Z</time></trkpt><trkpt lat="43.7694833" lon="11.2506333"><ele>57.0</ele><time>2026-05-04T07:17:30.391Z</time></trkpt><trkpt lat="43.7695" lon="11.25053"><ele>57.0</ele><time>2026-05-04T07:17:33.392Z</time></trkpt><trkpt lat="43.7695533" lon="11.250405"><ele>56.0</ele><time>2026-05-04T07:17:36.391Z</time></trkpt><trkpt lat="43.7696033" lon="11.2502933"><ele>55.0</ele><time>2026-05-04T07:17:38.392Z</time></trkpt><trkpt lat="43.769655" lon="11.25018"><ele>54.0</ele><time>2026-05-04T07:17:40.391Z</time></trkpt><trkpt lat="43.7697183" lon="11.2501117"><ele>53.0</ele><time>2026-05-04T07:17:42.391Z</time></trkpt><trkpt lat="43.7697767" lon="11.2500583"><ele>52.0</ele><time>2026-05-04T07:17:44.391Z</time></trkpt><trkpt lat="43.769805" lon="11.2499083"><ele>52.2</ele><time>2026-05-04T07:17:46.391Z</time></trkpt><trkpt lat="43.769845" lon="11.24978"><ele>52.400000000000006</ele><time>2026-05-04T07:17:48.391Z</time></trkpt><trkpt lat="43.7699083" lon="11.2496833"><ele>52.599999999999994</ele><time>2026-05-04T07:17:51.391Z</time></trkpt><trkpt lat="43.7699583" lon="11.2495783"><ele>52.8</ele><time>2026-05-04T07:17:53.391Z</time></trkpt><trkpt lat="43.7700083" lon="11.24947"><ele>53.0</ele><time>2026-05-04T07:17:55.391Z</time></trkpt><trkpt lat="43.7700667" lon="11.2493567"><ele>53.00000000000001</ele><time>2026-05-04T07:17:57.391Z</time></trkpt><trkpt lat="43.7701183" lon="11.2492533"><ele>53.0</ele><time>2026-05-04T07:17:59.391Z</time></trkpt><trkpt lat="43.7701667" lon="11.24917"><ele>53.0</ele><time>2026-05-04T07:18:01.392Z</time></trkpt><trkpt lat="43.770215" lon="11.2490933"><ele>53.0</ele><time>2026-05-04T07:18:03.392Z</time></trkpt><trkpt lat="43.7702483" lon="11.2490033"><ele>53.00000000000001</ele><time>2026-05-04T07:18:05.391Z</time></trkpt><trkpt lat="43.7702833" lon="11.248915"><ele>53.0</ele><time>2026-05-04T07:18:07.391Z</time></trkpt><trkpt lat="43.770325" lon="11.24883"><ele>53.16666666666667</ele><time>2026-05-04T07:18:09.392Z</time></trkpt><trkpt lat="43.770365" lon="11.2487367"><ele>53.333333333333336</ele><time>2026-05-04T07:18:11.391Z</time></trkpt><trkpt lat="43.77041" lon="11.2486383"><ele>53.5</ele><time>2026-05-04T07:18:13.391Z</time></trkpt><trkpt lat="43.770465" lon="11.2485283"><ele>53.66666666666667</ele><time>2026-05-04T07:18:15.391Z</time></trkpt><trkpt lat="43.7705083" lon="11.2484267"><ele>53.833333333333336</ele><time>2026-05-04T07:18:17.391Z</time></trkpt><trkpt lat="43.77055" lon="11.24831"><ele>54.0</ele><time>2026-05-04T07:18:19.391Z</time></trkpt><trkpt lat="43.77059" lon="11.248205"><ele>53.5</ele><time>2026-05-04T07:18:21.391Z</time></trkpt><trkpt lat="43.7706233" lon="11.2480967"><ele>53.0</ele><time>2026-05-04T07:18:23.391Z</time></trkpt><trkpt lat="43.7706667" lon="11.2479833"><ele>52.5</ele><time>2026-05-04T07:18:26.391Z</time></trkpt><trkpt lat="43.7706983" lon="11.2478667"><ele>52.0</ele><time>2026-05-04T07:18:29.391Z</time></trkpt><trkpt lat="43.77075" lon="11.247785"><ele>51.5</ele><time>2026-05-04T07:18:33.391Z</time></trkpt><trkpt lat="43.7707783" lon="11.2476933"><ele>51.0</ele><time>2026-05-04T07:18:35.391Z</time></trkpt><trkpt lat="43.7708083" lon="11.247615"><ele>51.0</ele><time>2026-05-04T07:18:37.391Z</time></trkpt><trkpt lat="43.7708483" lon="11.2475417"><ele>51.0</ele><time>2026-05-04T07:18:40.391Z</time></trkpt><trkpt lat="43.770895" lon="11.2474667"><ele>51.0</ele><time>2026-05-04T07:18:43.391Z</time></trkpt><trkpt lat="43.7709233" lon="11.2473817"><ele>51.0</ele><time>2026-05-04T07:18:45.391Z</time></trkpt><trkpt lat="43.7709617" lon="11.2472833"><ele>51.0</ele><time>2026-05-04T07:18:47.391Z</time></trkpt><trkpt lat="43.7710033" lon="11.24719"><ele>51.0</ele><time>2026-05-04T07:18:49.391Z</time></trkpt><trkpt lat="43.77105" lon="11.247095"><ele>51.0</ele><time>2026-05-04T07:18:51.391Z</time></trkpt><trkpt lat="43.77109" lon="11.2470017"><ele>52.0</ele><time>2026-05-04T07:18:53.391Z</time></trkpt><trkpt lat="43.7711217" lon="11.2469083"><ele>53.0</ele><time>2026-05-04T07:18:55.391Z</time></trkpt><trkpt lat="43.7711633" lon="11.2468283"><ele>54.0</ele><time>2026-05-04T07:18:57.391Z</time></trkpt><trkpt lat="43.7711967" lon="11.24675"><ele>55.0</ele><time>2026-05-04T07:18:59.391Z</time></trkpt><trkpt lat="43.7712567" lon="11.2466433"><ele>56.0</ele><time>2026-05-04T07:19:02.391Z</time></trkpt><trkpt lat="43.7713" lon="11.2465617"><ele>57.0</ele><time>2026-05-04T07:19:04.391Z</time></trkpt><trkpt lat="43.7713533" lon="11.2464783"><ele>58.166666666666664</ele><time>2026-05-04T07:19:06.391Z</time></trkpt><trkpt lat="43.7713967" lon="11.2463867"><ele>59.33333333333333</ele><time>2026-05-04T07:19:08.391Z</time></trkpt><trkpt lat="43.7714317" lon="11.24629"><ele>60.5</ele><time>2026-05-04T07:19:10.391Z</time></trkpt><trkpt lat="43.7714767" lon="11.2461917"><ele>61.666666666666664</ele><time>2026-05-04T07:19:12.391Z</time></trkpt><trkpt lat="43.7715267" lon="11.2460933"><ele>62.83333333333333</ele><time>2026-05-04T07:19:14.391Z</time></trkpt><trkpt lat="43.771575" lon="11.245995"><ele>64.0</ele><time>2026-05-04T07:19:16.391Z</time></trkpt><trkpt lat="43.7716083" lon="11.245905"><ele>64.0</ele><time>2026-05-04T07:19:18.391Z</time></trkpt><trkpt lat="43.7716633" lon="11.2458167"><ele>64.0</ele><time>2026-05-04T07:19:20.391Z</time></trkpt><trkpt lat="43.7717167" lon="11.2457233"><ele>64.0</ele><time>2026-05-04T07:19:22.392Z</time></trkpt><trkpt lat="43.7717733" lon="11.2455933"><ele>64.0</ele><time>2026-05-04T07:19:24.392Z</time></trkpt><trkpt lat="43.7718217" lon="11.245475"><ele>64.0</ele><time>2026-05-04T07:19:26.391Z</time></trkpt><trkpt lat="43.7718583" lon="11.2453617"><ele>62.49999999999999</ele><time>2026-05-04T07:19:28.391Z</time></trkpt><trkpt lat="43.7718917" lon="11.2452533"><ele>61.0</ele><time>2026-05-04T07:19:30.391Z</time></trkpt><trkpt lat="43.7719267" lon="11.24516"><ele>59.5</ele><time>2026-05-04T07:19:32.391Z</time></trkpt><trkpt lat="43.771965" lon="11.2450833"><ele>58.0</ele><time>2026-05-04T07:19:34.391Z</time></trkpt><trkpt lat="43.7719967" lon="11.24499"><ele>56.49999999999999</ele><time>2026-05-04T07:19:36.391Z</time></trkpt><trkpt lat="43.7720267" lon="11.2448817"><ele>55.0</ele><time>2026-05-04T07:19:38.391Z</time></trkpt><trkpt lat="43.77206" lon="11.244785"><ele>55.0</ele><time>2026-05-04T07:19:40.392Z</time></trkpt><trkpt lat="43.7721" lon="11.2446783"><ele>55.0</ele><time>2026-05-04T07:19:42.391Z</time></trkpt><trkpt lat="43.77213" lon="11.244555"><ele>55.0</ele><time>2026-05-04T07:19:44.391Z</time></trkpt><trkpt lat="43.77217" lon="11.24444"><ele>55.0</ele><time>2026-05-04T07:19:46.391Z</time></trkpt><trkpt lat="43.7722217" lon="11.2443333"><ele>55.0</ele><time>2026-05-04T07:19:48.391Z</time></trkpt><trkpt lat="43.7722683" lon="11.2442367"><ele>54.99999999999999</ele><time>2026-05-04T07:19:50.391Z</time></trkpt><trkpt lat="43.772315" lon="11.2441417"><ele>55.0</ele><time>2026-05-04T07:19:52.391Z</time></trkpt><trkpt lat="43.77236" lon="11.2440483"><ele>55.0</ele><time>2026-05-04T07:19:54.391Z</time></trkpt><trkpt lat="43.7723983" lon="11.2439617"><ele>55.0</ele><time>2026-05-04T07:19:56.391Z</time></trkpt><trkpt lat="43.77243" lon="11.24386"><ele>54.99999999999999</ele><time>2026-05-04T07:19:58.391Z</time></trkpt><trkpt lat="43.77245" lon="11.24374"><ele>55.0</ele><time>2026-05-04T07:20:00.391Z</time></trkpt><trkpt lat="43.7724867" lon="11.2436667"><ele>54.83333333333333</ele><time>2026-05-04T07:20:08.391Z</time></trkpt><trkpt lat="43.772555" lon="11.2435883"><ele>54.666666666666664</ele><time>2026-05-04T07:20:21.391Z</time></trkpt><trkpt lat="43.7725933" lon="11.2434817"><ele>54.5</ele><time>2026-05-04T07:20:24.391Z</time></trkpt><trkpt lat="43.7726417" lon="11.243395"><ele>54.33333333333333</ele><time>2026-05-04T07:20:27.391Z</time></trkpt><trkpt lat="43.7727" lon="11.2433"><ele>54.166666666666664</ele><time>2026-05-04T07:20:30.391Z</time></trkpt><trkpt lat="43.7727467" lon="11.2431867"><ele>54.0</ele><time>2026-05-04T07:20:33.391Z</time></trkpt><trkpt lat="43.7727817" lon="11.243105"><ele>53.5</ele><time>2026-05-04T07:20:35.391Z</time></trkpt><trkpt lat="43.7728067" lon="11.2429883"><ele>53.0</ele><time>2026-05-04T07:20:37.392Z</time></trkpt><trkpt lat="43.7728467" lon="11.242895"><ele>52.5</ele><time>2026-05-04T07:20:39.391Z</time></trkpt><trkpt lat="43.7728833" lon="11.24279"><ele>52.0</ele><time>2026-05-04T07:20:41.391Z</time></trkpt><trkpt lat="43.7729183" lon="11.242705"><ele>51.5</ele><time>2026-05-04T07:20:43.391Z</time></trkpt><trkpt lat="43.77295" lon="11.2426033"><ele>51.0</ele><time>2026-05-04T07:20:45.391Z</time></trkpt><trkpt lat="43.77298" lon="11.2425183"><ele>51.0</ele><time>2026-05-04T07:20:47.39Z</time></trkpt><trkpt lat="43.7730133" lon="11.2424233"><ele>51.0</ele><time>2026-05-04T07:20:49.39Z</time></trkpt><trkpt lat="43.7730467" lon="11.2423233"><ele>51.0</ele><time>2026-05-04T07:20:51.39Z</time></trkpt><trkpt lat="43.77308" lon="11.2422267"><ele>51.0</ele><time>2026-05-04T07:20:53.391Z</time></trkpt><trkpt lat="43.7731167" lon="11.2421167"><ele>51.0</ele><time>2026-05-04T07:20:55.391Z</time></trkpt><trkpt lat="43.773145" lon="11.2420133"><ele>51.0</ele><time>2026-05-04T07:20:57.39Z</time></trkpt><trkpt lat="43.7731733" lon="11.2419033"><ele>50.0</ele><time>2026-05-04T07:20:59.39Z</time></trkpt><trkpt lat="43.7732083" lon="11.2418083"><ele>49.0</ele><time>2026-05-04T07:21:01.39Z</time></trkpt><trkpt lat="43.7732367" lon="11.241725"><ele>48.0</ele><time>2026-05-04T07:21:03.39Z</time></trkpt><trkpt lat="43.7732883" lon="11.2416017"><ele>47.0</ele><time>2026-05-04T07:21:05.39Z</time></trkpt><trkpt lat="43.7733333" lon="11.2414817"><ele>46.0</ele><time>2026-05-04T07:21:07.39Z</time></trkpt><trkpt lat="43.7733833" lon="11.241395"><ele>45.0</ele><time>2026-05-04T07:21:09.39Z</time></trkpt><trkpt lat="43.7734267" lon="11.2412917"><ele>45.0</ele><time>2026-05-04T07:21:11.39Z</time></trkpt><trkpt lat="43.7734667" lon="11.2411867"><ele>45.0</ele><time>2026-05-04T07:21:13.39Z</time></trkpt><trkpt lat="43.7734983" lon="11.241095"><ele>45.0</ele><time>2026-05-04T07:21:15.39Z</time></trkpt><trkpt lat="43.773545" lon="11.2409883"><ele>45.0</ele><time>2026-05-04T07:21:18.39Z</time></trkpt><trkpt lat="43.773575" lon="11.2408967"><ele>45.0</ele><time>2026-05-04T07:21:20.39Z</time></trkpt><trkpt lat="43.7736033" lon="11.2407733"><ele>45.0</ele><time>2026-05-04T07:21:22.39Z</time></trkpt><trkpt lat="43.7736217" lon="11.2406517"><ele>46.166666666666664</ele><time>2026-05-04T07:21:24.39Z</time></trkpt><trkpt lat="43.7736433" lon="11.2405367"><ele>47.33333333333333</ele><time>2026-05-04T07:21:26.39Z</time></trkpt><trkpt lat="43.773665" lon="11.2404367"><ele>48.5</ele><time>2026-05-04T07:21:28.39Z</time></trkpt><trkpt lat="43.7736983" lon="11.2403133"><ele>49.666666666666664</ele><time>2026-05-04T07:21:30.391Z</time></trkpt><trkpt lat="43.77373" lon="11.240235"><ele>50.83333333333333</ele><time>2026-05-04T07:21:32.39Z</time></trkpt><trkpt lat="43.7737683" lon="11.24014"><ele>52.0</ele><time>2026-05-04T07:21:34.39Z</time></trkpt><trkpt lat="43.7737983" lon="11.2400467"><ele>52.0</ele><time>2026-05-04T07:21:36.39Z</time></trkpt><trkpt lat="43.7738283" lon="11.2399483"><ele>52.0</ele><time>2026-05-04T07:21:38.39Z</time></trkpt><trkpt lat="43.7738783" lon="11.23986"><ele>52.0</ele><time>2026-05-04T07:21:41.391Z</time></trkpt><trkpt lat="43.7739017" lon="11.2397683"><ele>52.0</ele><time>2026-05-04T07:21:43.39Z</time></trkpt><trkpt lat="43.773915" lon="11.2396817"><ele>52.0</ele><time>2026-05-04T07:21:45.39Z</time></trkpt><trkpt lat="43.77393" lon="11.239575"><ele>52.0</ele><time>2026-05-04T07:21:47.39Z</time></trkpt><trkpt lat="43.7739467" lon="11.2394767"><ele>52.0</ele><time>2026-05-04T07:21:49.391Z</time></trkpt><trkpt lat="43.774" lon="11.239375"><ele>51.714285714285715</ele><time>2026-05-04T07:21:52.39Z</time></trkpt><trkpt lat="43.77405" lon="11.2393017"><ele>51.42857142857143</ele><time>2026-05-04T07:21:54.39Z</time></trkpt><trkpt lat="43.7740817" lon="11.239215"><ele>51.142857142857146</ele><time>2026-05-04T07:21:56.39Z</time></trkpt><trkpt lat="43.774125" lon="11.23913"><ele>50.85714285714286</ele><time>2026-05-04T07:21:58.39Z</time></trkpt><trkpt lat="43.77417" lon="11.2390433"><ele>50.57142857142857</ele><time>2026-05-04T07:22:00.39Z</time></trkpt><trkpt lat="43.7741983" lon="11.2389633"><ele>50.28571428571429</ele><time>2026-05-04T07:22:02.39Z</time></trkpt><trkpt lat="43.774245" lon="11.2388817"><ele>50.0</ele><time>2026-05-04T07:22:04.391Z</time></trkpt><trkpt lat="43.7742933" lon="11.2388017"><ele>50.4</ele><time>2026-05-04T07:22:06.39Z</time></trkpt><trkpt lat="43.7743433" lon="11.23868"><ele>50.8</ele><time>2026-05-04T07:22:09.39Z</time></trkpt><trkpt lat="43.774375" lon="11.2385733"><ele>51.2</ele><time>2026-05-04T07:22:11.39Z</time></trkpt><trkpt lat="43.77439" lon="11.238425"><ele>51.6</ele><time>2026-05-04T07:22:13.39Z</time></trkpt><trkpt lat="43.77441" lon="11.2383033"><ele>52.0</ele><time>2026-05-04T07:22:15.39Z</time></trkpt><trkpt lat="43.774455" lon="11.2382217"><ele>51.83333333333333</ele><time>2026-05-04T07:22:17.39Z</time></trkpt><trkpt lat="43.7744833" lon="11.238115"><ele>51.666666666666664</ele><time>2026-05-04T07:22:19.39Z</time></trkpt><trkpt lat="43.7745083" lon="11.238015"><ele>51.5</ele><time>2026-05-04T07:22:21.39Z</time></trkpt><trkpt lat="43.774535" lon="11.237915"><ele>51.33333333333333</ele><time>2026-05-04T07:22:23.39Z</time></trkpt><trkpt lat="43.77455" lon="11.237825"><ele>51.166666666666664</ele><time>2026-05-04T07:22:25.39Z</time></trkpt><trkpt lat="43.7745567" lon="11.2377217"><ele>51.0</ele><time>2026-05-04T07:22:27.39Z</time></trkpt><trkpt lat="43.774565" lon="11.237615"><ele>51.0</ele><time>2026-05-04T07:22:29.391Z</time></trkpt><trkpt lat="43.7746083" lon="11.2375367"><ele>51.0</ele><time>2026-05-04T07:22:31.391Z</time></trkpt><trkpt lat="43.7746367" lon="11.2374333"><ele>51.0</ele><time>2026-05-04T07:22:33.39Z</time></trkpt><trkpt lat="43.7746733" lon="11.23733"><ele>51.0</ele><time>2026-05-04T07:22:35.39Z</time></trkpt><trkpt lat="43.7747133" lon="11.2372467"><ele>51.0</ele><time>2026-05-04T07:22:37.39Z</time></trkpt><trkpt lat="43.774745" lon="11.2371533"><ele>51.0</ele><time>2026-05-04T07:22:39.39Z</time></trkpt><trkpt lat="43.7747683" lon="11.23705"><ele>50.5</ele><time>2026-05-04T07:22:41.39Z</time></trkpt><trkpt lat="43.77481" lon="11.2369383"><ele>50.0</ele><time>2026-05-04T07:22:44.39Z</time></trkpt><trkpt lat="43.7748317" lon="11.2368133"><ele>49.5</ele><time>2026-05-04T07:22:47.39Z</time></trkpt><trkpt lat="43.774865" lon="11.23669"><ele>49.0</ele><time>2026-05-04T07:22:50.39Z</time></trkpt><trkpt lat="43.7748983" lon="11.2365967"><ele>48.5</ele><time>2026-05-04T07:22:52.39Z</time></trkpt><trkpt lat="43.77493" lon="11.2365133"><ele>48.0</ele><time>2026-05-04T07:22:54.39Z</time></trkpt><trkpt lat="43.774995" lon="11.2364367"><ele>47.833333333333336</ele><time>2026-05-04T07:22:57.39Z</time></trkpt><trkpt lat="43.7750683" lon="11.2364367"><ele>47.666666666666664</ele><time>2026-05-04T07:23:00.39Z</time></trkpt><trkpt lat="43.775145" lon="11.2364567"><ele>47.5</ele><time>2026-05-04T07:23:02.39Z</time></trkpt><trkpt lat="43.7752267" lon="11.236525"><ele>47.33333333333333</ele><time>2026-05-04T07:23:04.39Z</time></trkpt><trkpt lat="43.7752933" lon="11.2365933"><ele>47.166666666666664</ele><time>2026-05-04T07:23:06.39Z</time></trkpt><trkpt lat="43.7753533" lon="11.2366483"><ele>47.0</ele><time>2026-05-04T07:23:08.39Z</time></trkpt><trkpt lat="43.775385" lon="11.2367783"><ele>47.0</ele><time>2026-05-04T07:23:10.39Z</time></trkpt><trkpt lat="43.7754367" lon="11.23683"><ele>47.0</ele><time>2026-05-04T07:23:12.39Z</time></trkpt><trkpt lat="43.7754967" lon="11.23686"><ele>47.0</ele><time>2026-05-04T07:23:16.39Z</time></trkpt><trkpt lat="43.7755683" lon="11.2368633"><ele>47.0</ele><time>2026-05-04T07:23:22.39Z</time></trkpt><trkpt lat="43.77563" lon="11.23681"><ele>47.0</ele><time>2026-05-04T07:23:24.39Z</time></trkpt><trkpt lat="43.7757067" lon="11.2367583"><ele>47.0</ele><time>2026-05-04T07:23:27.39Z</time></trkpt><trkpt lat="43.7757567" lon="11.23667"><ele>47.0</ele><time>2026-05-04T07:23:30.39Z</time></trkpt><trkpt lat="43.7757817" lon="11.236585"><ele>47.0</ele><time>2026-05-04T07:23:33.39Z</time></trkpt><trkpt lat="43.775815" lon="11.23649"><ele>47.0</ele><time>2026-05-04T07:23:36.39Z</time></trkpt><trkpt lat="43.7758267" lon="11.2364"><ele>47.0</ele><time>2026-05-04T07:23:38.39Z</time></trkpt><trkpt lat="43.7758433" lon="11.2363033"><ele>47.0</ele><time>2026-05-04T07:23:42.391Z</time></trkpt><trkpt lat="43.7758767" lon="11.236195"><ele>47.0</ele><time>2026-05-04T07:23:45.39Z</time></trkpt><trkpt lat="43.7759167" lon="11.2361017"><ele>47.0</ele><time>2026-05-04T07:23:48.39Z</time></trkpt><trkpt lat="43.7759683" lon="11.23602"><ele>46.83333333333333</ele><time>2026-05-04T07:23:52.391Z</time></trkpt><trkpt lat="43.776015" lon="11.23594"><ele>46.666666666666664</ele><time>2026-05-04T07:23:55.39Z</time></trkpt><trkpt lat="43.7760683" lon="11.2358533"><ele>46.5</ele><time>2026-05-04T07:23:58.39Z</time></trkpt><trkpt lat="43.7760667" lon="11.2357417"><ele>46.333333333333336</ele><time>2026-05-04T07:24:01.39Z</time></trkpt><trkpt lat="43.7760733" lon="11.235615"><ele>46.16666666666667</ele><time>2026-05-04T07:24:04.39Z</time></trkpt><trkpt lat="43.7760867" lon="11.23552"><ele>46.0</ele><time>2026-05-04T07:24:06.391Z</time></trkpt><trkpt lat="43.7760983" lon="11.23539"><ele>45.66666666666667</ele><time>2026-05-04T07:24:09.39Z</time></trkpt><trkpt lat="43.7761" lon="11.235295"><ele>45.333333333333336</ele><time>2026-05-04T07:24:11.39Z</time></trkpt><trkpt lat="43.7760983" lon="11.235165"><ele>45.0</ele><time>2026-05-04T07:24:14.39Z</time></trkpt><trkpt lat="43.77609" lon="11.2350767"><ele>44.666666666666664</ele><time>2026-05-04T07:24:16.39Z</time></trkpt><trkpt lat="43.7760683" lon="11.2349883"><ele>44.33333333333333</ele><time>2026-05-04T07:24:18.39Z</time></trkpt><trkpt lat="43.776035" lon="11.234885"><ele>44.0</ele><time>2026-05-04T07:24:21.39Z</time></trkpt><trkpt lat="43.7759833" lon="11.2347867"><ele>44.0</ele><time>2026-05-04T07:24:24.39Z</time></trkpt><trkpt lat="43.7759417" lon="11.2346783"><ele>44.0</ele><time>2026-05-04T07:24:27.39Z</time></trkpt><trkpt lat="43.7759133" lon="11.2345333"><ele>44.0</ele><time>2026-05-04T07:24:30.39Z</time></trkpt><trkpt lat="43.7758883" lon="11.2344133"><ele>44.0</ele><time>2026-05-04T07:24:32.39Z</time></trkpt><trkpt lat="43.7758967" lon="11.2343"><ele>44.0</ele><time>2026-05-04T07:24:35.39Z</time></trkpt><trkpt lat="43.7758883" lon="11.234205"><ele>44.0</ele><time>2026-05-04T07:24:37.39Z</time></trkpt><trkpt lat="43.775895" lon="11.2341117"><ele>44.0</ele><time>2026-05-04T07:24:39.39Z</time></trkpt><trkpt lat="43.77589" lon="11.233975"><ele>44.0</ele><time>2026-05-04T07:24:41.39Z</time></trkpt><trkpt lat="43.7758883" lon="11.233845"><ele>44.0</ele><time>2026-05-04T07:24:43.39Z</time></trkpt><trkpt lat="43.7759133" lon="11.2337567"><ele>44.0</ele><time>2026-05-04T07:24:45.39Z</time></trkpt><trkpt lat="43.7759333" lon="11.2336233"><ele>44.0</ele><time>2026-05-04T07:24:48.39Z</time></trkpt><trkpt lat="43.7759417" lon="11.2335317"><ele>44.0</ele><time>2026-05-04T07:24:50.39Z</time></trkpt><trkpt lat="43.77595" lon="11.233425"><ele>43.83333333333333</ele><time>2026-05-04T07:24:52.391Z</time></trkpt><trkpt lat="43.7759633" lon="11.2332967"><ele>43.666666666666664</ele><time>2026-05-04T07:24:54.39Z</time></trkpt><trkpt lat="43.7759783" lon="11.2331833"><ele>43.5</ele><time>2026-05-04T07:24:56.39Z</time></trkpt><trkpt lat="43.7759983" lon="11.2330967"><ele>43.333333333333336</ele><time>2026-05-04T07:24:58.39Z</time></trkpt><trkpt lat="43.7760117" lon="11.2330033"><ele>43.16666666666667</ele><time>2026-05-04T07:25:00.39Z</time></trkpt><trkpt lat="43.776035" lon="11.23291"><ele>43.0</ele><time>2026-05-04T07:25:02.39Z</time></trkpt><trkpt lat="43.776075" lon="11.2328183"><ele>43.833333333333336</ele><time>2026-05-04T07:25:04.39Z</time></trkpt><trkpt lat="43.7761333" lon="11.232715"><ele>44.66666666666667</ele><time>2026-05-04T07:25:07.39Z</time></trkpt><trkpt lat="43.7761783" lon="11.23264"><ele>45.5</ele><time>2026-05-04T07:25:09.39Z</time></trkpt><trkpt lat="43.77622" lon="11.2325467"><ele>46.333333333333336</ele><time>2026-05-04T07:25:11.39Z</time></trkpt><trkpt lat="43.7762567" lon="11.2324583"><ele>47.166666666666664</ele><time>2026-05-04T07:25:13.39Z</time></trkpt><trkpt lat="43.7762917" lon="11.232355"><ele>48.0</ele><time>2026-05-04T07:25:15.39Z</time></trkpt><trkpt lat="43.776315" lon="11.232225"><ele>48.0</ele><time>2026-05-04T07:25:17.39Z</time></trkpt><trkpt lat="43.7763517" lon="11.2321167"><ele>48.0</ele><time>2026-05-04T07:25:19.39Z</time></trkpt><trkpt lat="43.7763867" lon="11.2320167"><ele>48.0</ele><time>2026-05-04T07:25:21.39Z</time></trkpt><trkpt lat="43.7764167" lon="11.2319083"><ele>48.0</ele><time>2026-05-04T07:25:23.39Z</time></trkpt><trkpt lat="43.7764383" lon="11.231785"><ele>48.0</ele><time>2026-05-04T07:25:25.39Z</time></trkpt><trkpt lat="43.776465" lon="11.23167"><ele>48.0</ele><time>2026-05-04T07:25:27.39Z</time></trkpt><trkpt lat="43.7764817" lon="11.2315583"><ele>47.333333333333336</ele><time>2026-05-04T07:25:29.39Z</time></trkpt><trkpt lat="43.7765133" lon="11.231455"><ele>46.666666666666664</ele><time>2026-05-04T07:25:31.39Z</time></trkpt><trkpt lat="43.7765433" lon="11.231335"><ele>46.0</ele><time>2026-05-04T07:25:33.39Z</time></trkpt><trkpt lat="43.7765717" lon="11.2312233"><ele>45.33333333333333</ele><time>2026-05-04T07:25:35.39Z</time></trkpt><trkpt lat="43.7765883" lon="11.231125"><ele>44.666666666666664</ele><time>2026-05-04T07:25:37.39Z</time></trkpt><trkpt lat="43.77662" lon="11.2310333"><ele>44.0</ele><time>2026-05-04T07:25:39.39Z</time></trkpt><trkpt lat="43.7766517" lon="11.2309217"><ele>44.0</ele><time>2026-05-04T07:25:41.39Z</time></trkpt><trkpt lat="43.7766867" lon="11.2308083"><ele>44.0</ele><time>2026-05-04T07:25:43.391Z</time></trkpt><trkpt lat="43.7767083" lon="11.2307017"><ele>44.0</ele><time>2026-05-04T07:25:45.39Z</time></trkpt><trkpt lat="43.7767417" lon="11.2306083"><ele>44.0</ele><time>2026-05-04T07:25:47.39Z</time></trkpt><trkpt lat="43.7767767" lon="11.23051"><ele>44.0</ele><time>2026-05-04T07:25:49.39Z</time></trkpt><trkpt lat="43.7768183" lon="11.2303983"><ele>44.0</ele><time>2026-05-04T07:25:51.39Z</time></trkpt><trkpt lat="43.7768483" lon="11.2302867"><ele>43.666666666666664</ele><time>2026-05-04T07:25:53.39Z</time></trkpt><trkpt lat="43.77687" lon="11.2301917"><ele>43.33333333333333</ele><time>2026-05-04T07:25:55.39Z</time></trkpt><trkpt lat="43.77689" lon="11.2300983"><ele>43.0</ele><time>2026-05-04T07:25:57.39Z</time></trkpt><trkpt lat="43.7769067" lon="11.2299717"><ele>42.666666666666664</ele><time>2026-05-04T07:26:00.39Z</time></trkpt><trkpt lat="43.7768933" lon="11.2298817"><ele>42.333333333333336</ele><time>2026-05-04T07:26:02.39Z</time></trkpt><trkpt lat="43.7768567" lon="11.2298067"><ele>42.0</ele><time>2026-05-04T07:26:05.39Z</time></trkpt><trkpt lat="43.776805" lon="11.2296967"><ele>42.0</ele><time>2026-05-04T07:26:08.389Z</time></trkpt><trkpt lat="43.7767317" lon="11.2296383"><ele>42.0</ele><time>2026-05-04T07:26:11.389Z</time></trkpt><trkpt lat="43.776675" lon="11.2296"><ele>42.0</ele><time>2026-05-04T07:26:13.389Z</time></trkpt><trkpt lat="43.7766017" lon="11.2295583"><ele>42.0</ele><time>2026-05-04T07:26:16.389Z</time></trkpt><trkpt lat="43.7765317" lon="11.2295333"><ele>42.0</ele><time>2026-05-04T07:26:19.389Z</time></trkpt><trkpt lat="43.77646" lon="11.2294833"><ele>42.0</ele><time>2026-05-04T07:26:22.389Z</time></trkpt><trkpt lat="43.7763867" lon="11.2294267"><ele>42.0</ele><time>2026-05-04T07:26:25.389Z</time></trkpt><trkpt lat="43.77632" lon="11.2293783"><ele>42.0</ele><time>2026-05-04T07:26:28.39Z</time></trkpt><trkpt lat="43.776255" lon="11.2293217"><ele>42.0</ele><time>2026-05-04T07:26:31.389Z</time></trkpt><trkpt lat="43.7761817" lon="11.2292683"><ele>42.0</ele><time>2026-05-04T07:26:34.389Z</time></trkpt><trkpt lat="43.7761267" lon="11.229225"><ele>42.0</ele><time>2026-05-04T07:26:36.389Z</time></trkpt><trkpt lat="43.7760583" lon="11.2291717"><ele>42.0</ele><time>2026-05-04T07:26:38.389Z</time></trkpt><trkpt lat="43.7759783" lon="11.22911"><ele>42.0</ele><time>2026-05-04T07:26:40.389Z</time></trkpt><trkpt lat="43.7758933" lon="11.2290217"><ele>42.0</ele><time>2026-05-04T07:26:42.389Z</time></trkpt><trkpt lat="43.7758717" lon="11.2288867"><ele>42.0</ele><time>2026-05-04T07:26:44.389Z</time></trkpt><trkpt lat="43.7758933" lon="11.228745"><ele>42.0</ele><time>2026-05-04T07:26:46.389Z</time></trkpt><trkpt lat="43.7759317" lon="11.2285817"><ele>42.0</ele><time>2026-05-04T07:26:48.389Z</time></trkpt><trkpt lat="43.7759533" lon="11.228495"><ele>42.2</ele><time>2026-05-04T07:26:49.389Z</time></trkpt><trkpt lat="43.7759733" lon="11.2284083"><ele>42.400000000000006</ele><time>2026-05-04T07:26:50.389Z</time></trkpt><trkpt lat="43.7759933" lon="11.2283233"><ele>42.599999999999994</ele><time>2026-05-04T07:26:51.389Z</time></trkpt><trkpt lat="43.7760333" lon="11.2281683"><ele>42.8</ele><time>2026-05-04T07:26:53.389Z</time></trkpt><trkpt lat="43.7760717" lon="11.2280383"><ele>43.0</ele><time>2026-05-04T07:26:55.389Z</time></trkpt><trkpt lat="43.7761183" lon="11.2279167"><ele>43.00000000000001</ele><time>2026-05-04T07:26:57.389Z</time></trkpt><trkpt lat="43.7761567" lon="11.227805"><ele>43.0</ele><time>2026-05-04T07:26:59.39Z</time></trkpt><trkpt lat="43.7761833" lon="11.227705"><ele>43.0</ele><time>2026-05-04T07:27:01.389Z</time></trkpt><trkpt lat="43.7762183" lon="11.2276183"><ele>43.0</ele><time>2026-05-04T07:27:03.389Z</time></trkpt><trkpt lat="43.7762483" lon="11.2275317"><ele>43.0</ele><time>2026-05-04T07:27:05.39Z</time></trkpt><trkpt lat="43.7762883" lon="11.2274617"><ele>43.00000000000001</ele><time>2026-05-04T07:27:07.389Z</time></trkpt><trkpt lat="43.7763167" lon="11.2273833"><ele>43.0</ele><time>2026-05-04T07:27:09.389Z</time></trkpt><trkpt lat="43.7763533" lon="11.2273067"><ele>42.833333333333336</ele><time>2026-05-04T07:27:11.389Z</time></trkpt><trkpt lat="43.77638" lon="11.22722"><ele>42.66666666666667</ele><time>2026-05-04T07:27:13.389Z</time></trkpt><trkpt lat="43.7764067" lon="11.2271317"><ele>42.5</ele><time>2026-05-04T07:27:15.389Z</time></trkpt><trkpt lat="43.776435" lon="11.22705"><ele>42.333333333333336</ele><time>2026-05-04T07:27:17.39Z</time></trkpt><trkpt lat="43.7764617" lon="11.2269333"><ele>42.166666666666664</ele><time>2026-05-04T07:27:20.389Z</time></trkpt><trkpt lat="43.776485" lon="11.226845"><ele>42.0</ele><time>2026-05-04T07:27:22.389Z</time></trkpt><trkpt lat="43.7765167" lon="11.226725"><ele>42.0</ele><time>2026-05-04T07:27:24.389Z</time></trkpt><trkpt lat="43.7765517" lon="11.2266167"><ele>42.0</ele><time>2026-05-04T07:27:26.389Z</time></trkpt><trkpt lat="43.7765883" lon="11.2265117"><ele>42.0</ele><time>2026-05-04T07:27:28.389Z</time></trkpt><trkpt lat="43.7766167" lon="11.2264033"><ele>42.0</ele><time>2026-05-04T07:27:30.389Z</time></trkpt><trkpt lat="43.7766417" lon="11.226315"><ele>42.0</ele><time>2026-05-04T07:27:32.389Z</time></trkpt><trkpt lat="43.776675" lon="11.2262217"><ele>42.0</ele><time>2026-05-04T07:27:34.389Z</time></trkpt><trkpt lat="43.7767017" lon="11.22613"><ele>42.0</ele><time>2026-05-04T07:27:36.389Z</time></trkpt><trkpt lat="43.776735" lon="11.2260167"><ele>42.0</ele><time>2026-05-04T07:27:38.389Z</time></trkpt><trkpt lat="43.7767833" lon="11.2259317"><ele>42.0</ele><time>2026-05-04T07:27:40.389Z</time></trkpt><trkpt lat="43.7768083" lon="11.22585"><ele>42.0</ele><time>2026-05-04T07:27:42.389Z</time></trkpt><trkpt lat="43.77683" lon="11.22572"><ele>42.0</ele><time>2026-05-04T07:27:45.389Z</time></trkpt><trkpt lat="43.7768617" lon="11.2256333"><ele>42.0</ele><time>2026-05-04T07:27:47.39Z</time></trkpt><trkpt lat="43.7769133" lon="11.2255233"><ele>42.0</ele><time>2026-05-04T07:27:50.39Z</time></trkpt><trkpt lat="43.7769517" lon="11.225435"><ele>42.0</ele><time>2026-05-04T07:27:52.389Z</time></trkpt><trkpt lat="43.7769667" lon="11.2253067"><ele>42.0</ele><time>2026-05-04T07:27:55.389Z</time></trkpt><trkpt lat="43.77699" lon="11.2252017"><ele>42.0</ele><time>2026-05-04T07:27:58.389Z</time></trkpt><trkpt lat="43.77702" lon="11.2250883"><ele>42.0</ele><time>2026-05-04T07:28:01.389Z</time></trkpt><trkpt lat="43.77705" lon="11.225005"><ele>42.0</ele><time>2026-05-04T07:28:03.39Z</time></trkpt><trkpt lat="43.77709" lon="11.2249183"><ele>42.0</ele><time>2026-05-04T07:28:05.389Z</time></trkpt><trkpt lat="43.7771133" lon="11.2248367"><ele>42.0</ele><time>2026-05-04T07:28:07.389Z</time></trkpt><trkpt lat="43.77716" lon="11.2247117"><ele>42.0</ele><time>2026-05-04T07:28:10.389Z</time></trkpt><trkpt lat="43.7771983" lon="11.22462"><ele>42.0</ele><time>2026-05-04T07:28:12.389Z</time></trkpt><trkpt lat="43.77723" lon="11.2245233"><ele>42.0</ele><time>2026-05-04T07:28:14.389Z</time></trkpt><trkpt lat="43.777245" lon="11.2244117"><ele>42.0</ele><time>2026-05-04T07:28:17.389Z</time></trkpt><trkpt lat="43.7772617" lon="11.224325"><ele>42.166666666666664</ele><time>2026-05-04T07:28:19.389Z</time></trkpt><trkpt lat="43.7772767" lon="11.224225"><ele>42.333333333333336</ele><time>2026-05-04T07:28:21.389Z</time></trkpt><trkpt lat="43.7773067" lon="11.22412"><ele>42.5</ele><time>2026-05-04T07:28:23.389Z</time></trkpt><trkpt lat="43.7773483" lon="11.2240233"><ele>42.66666666666667</ele><time>2026-05-04T07:28:25.389Z</time></trkpt><trkpt lat="43.7773867" lon="11.2239267"><ele>42.833333333333336</ele><time>2026-05-04T07:28:27.389Z</time></trkpt><trkpt lat="43.7774183" lon="11.2238417"><ele>43.0</ele><time>2026-05-04T07:28:29.389Z</time></trkpt><trkpt lat="43.7774467" lon="11.223755"><ele>43.00000000000001</ele><time>2026-05-04T07:28:31.39Z</time></trkpt><trkpt lat="43.7774717" lon="11.2236683"><ele>43.0</ele><time>2026-05-04T07:28:33.389Z</time></trkpt><trkpt lat="43.7774933" lon="11.2235733"><ele>43.0</ele><time>2026-05-04T07:28:35.389Z</time></trkpt><trkpt lat="43.77752" lon="11.2234867"><ele>43.0</ele><time>2026-05-04T07:28:37.389Z</time></trkpt><trkpt lat="43.7775483" lon="11.2233917"><ele>43.0</ele><time>2026-05-04T07:28:39.389Z</time></trkpt><trkpt lat="43.7775683" lon="11.2232783"><ele>43.00000000000001</ele><time>2026-05-04T07:28:41.389Z</time></trkpt><trkpt lat="43.7775917" lon="11.223195"><ele>43.0</ele><time>2026-05-04T07:28:43.389Z</time></trkpt><trkpt lat="43.7776117" lon="11.2230817"><ele>43.599999999999994</ele><time>2026-05-04T07:28:45.389Z</time></trkpt><trkpt lat="43.7776383" lon="11.2229733"><ele>44.199999999999996</ele><time>2026-05-04T07:28:47.389Z</time></trkpt><trkpt lat="43.7776767" lon="11.222875"><ele>44.8</ele><time>2026-05-04T07:28:49.389Z</time></trkpt><trkpt lat="43.777735" lon="11.2227633"><ele>45.4</ele><time>2026-05-04T07:28:51.389Z</time></trkpt><trkpt lat="43.7777933" lon="11.2226317"><ele>46.0</ele><time>2026-05-04T07:28:53.389Z</time></trkpt><trkpt lat="43.7778483" lon="11.2225117"><ele>46.0</ele><time>2026-05-04T07:28:55.389Z</time></trkpt><trkpt lat="43.77788" lon="11.22241"><ele>46.0</ele><time>2026-05-04T07:28:57.389Z</time></trkpt><trkpt lat="43.7779217" lon="11.22232"><ele>46.0</ele><time>2026-05-04T07:28:59.389Z</time></trkpt><trkpt lat="43.7779567" lon="11.222235"><ele>46.0</ele><time>2026-05-04T07:29:01.389Z</time></trkpt><trkpt lat="43.77799" lon="11.2221117"><ele>46.0</ele><time>2026-05-04T07:29:04.389Z</time></trkpt><trkpt lat="43.77802" lon="11.222015"><ele>46.0</ele><time>2026-05-04T07:29:06.389Z</time></trkpt><trkpt lat="43.7780483" lon="11.2219167"><ele>46.0</ele><time>2026-05-04T07:29:08.389Z</time></trkpt><trkpt lat="43.7780883" lon="11.2218217"><ele>46.0</ele><time>2026-05-04T07:29:10.389Z</time></trkpt><trkpt lat="43.7781367" lon="11.2217067"><ele>46.0</ele><time>2026-05-04T07:29:12.389Z</time></trkpt><trkpt lat="43.77818" lon="11.221625"><ele>46.0</ele><time>2026-05-04T07:29:14.389Z</time></trkpt><trkpt lat="43.7782183" lon="11.2215183"><ele>46.0</ele><time>2026-05-04T07:29:16.389Z</time></trkpt><trkpt lat="43.7782633" lon="11.2214233"><ele>46.0</ele><time>2026-05-04T07:29:18.389Z</time></trkpt><trkpt lat="43.7782983" lon="11.22133"><ele>46.0</ele><time>2026-05-04T07:29:20.389Z</time></trkpt><trkpt lat="43.77833" lon="11.2212333"><ele>46.0</ele><time>2026-05-04T07:29:22.39Z</time></trkpt><trkpt lat="43.77836" lon="11.221135"><ele>46.0</ele><time>2026-05-04T07:29:24.39Z</time></trkpt><trkpt lat="43.7784" lon="11.22102"><ele>46.0</ele><time>2026-05-04T07:29:26.39Z</time></trkpt><trkpt lat="43.778445" lon="11.22091"><ele>46.0</ele><time>2026-05-04T07:29:28.39Z</time></trkpt><trkpt lat="43.7784883" lon="11.220805"><ele>46.0</ele><time>2026-05-04T07:29:30.389Z</time></trkpt><trkpt lat="43.7785317" lon="11.2207117"><ele>45.42857142857143</ele><time>2026-05-04T07:29:32.389Z</time></trkpt><trkpt lat="43.7785667" lon="11.22062"><ele>44.857142857142854</ele><time>2026-05-04T07:29:34.39Z</time></trkpt><trkpt lat="43.7786017" lon="11.220535"><ele>44.285714285714285</ele><time>2026-05-04T07:29:36.389Z</time></trkpt><trkpt lat="43.7786067" lon="11.2204433"><ele>43.714285714285715</ele><time>2026-05-04T07:29:38.389Z</time></trkpt><trkpt lat="43.7785917" lon="11.2203583"><ele>43.14285714285714</ele><time>2026-05-04T07:29:40.389Z</time></trkpt><trkpt lat="43.7786133" lon="11.220255"><ele>42.57142857142857</ele><time>2026-05-04T07:29:43.389Z</time></trkpt><trkpt lat="43.7786433" lon="11.2201283"><ele>42.0</ele><time>2026-05-04T07:29:46.389Z</time></trkpt><trkpt lat="43.77867" lon="11.2200433"><ele>42.0</ele><time>2026-05-04T07:29:48.389Z</time></trkpt><trkpt lat="43.7787067" lon="11.21997"><ele>42.0</ele><time>2026-05-04T07:29:50.389Z</time></trkpt><trkpt lat="43.7787567" lon="11.219915"><ele>42.0</ele><time>2026-05-04T07:29:52.389Z</time></trkpt><trkpt lat="43.7787917" lon="11.2197833"><ele>42.0</ele><time>2026-05-04T07:29:55.389Z</time></trkpt><trkpt lat="43.7788183" lon="11.219685"><ele>42.0</ele><time>2026-05-04T07:29:57.389Z</time></trkpt><trkpt lat="43.7788433" lon="11.219575"><ele>42.0</ele><time>2026-05-04T07:29:59.389Z</time></trkpt><trkpt lat="43.7788783" lon="11.2194633"><ele>42.0</ele><time>2026-05-04T07:30:01.389Z</time></trkpt><trkpt lat="43.7789217" lon="11.21935"><ele>42.0</ele><time>2026-05-04T07:30:03.389Z</time></trkpt><trkpt lat="43.7789633" lon="11.2192583"><ele>42.0</ele><time>2026-05-04T07:30:05.389Z</time></trkpt><trkpt lat="43.7790017" lon="11.2191633"><ele>42.0</ele><time>2026-05-04T07:30:07.389Z</time></trkpt><trkpt lat="43.7790267" lon="11.2190683"><ele>42.0</ele><time>2026-05-04T07:30:09.389Z</time></trkpt><trkpt lat="43.7790567" lon="11.2189867"><ele>42.0</ele><time>2026-05-04T07:30:11.39Z</time></trkpt><trkpt lat="43.7790967" lon="11.2189017"><ele>42.0</ele><time>2026-05-04T07:30:13.389Z</time></trkpt><trkpt lat="43.7791383" lon="11.2188333"><ele>42.0</ele><time>2026-05-04T07:30:15.389Z</time></trkpt><trkpt lat="43.7791867" lon="11.2187733"><ele>42.0</ele><time>2026-05-04T07:30:17.389Z</time></trkpt><trkpt lat="43.7792467" lon="11.2187233"><ele>42.0</ele><time>2026-05-04T07:30:19.389Z</time></trkpt><trkpt lat="43.7792983" lon="11.218625"><ele>42.0</ele><time>2026-05-04T07:30:21.39Z</time></trkpt><trkpt lat="43.77934" lon="11.218515"><ele>42.0</ele><time>2026-05-04T07:30:23.389Z</time></trkpt><trkpt lat="43.779385" lon="11.2184183"><ele>42.166666666666664</ele><time>2026-05-04T07:30:25.389Z</time></trkpt><trkpt lat="43.7794233" lon="11.2183133"><ele>42.333333333333336</ele><time>2026-05-04T07:30:27.389Z</time></trkpt><trkpt lat="43.77944" lon="11.218205"><ele>42.5</ele><time>2026-05-04T07:30:29.389Z</time></trkpt><trkpt lat="43.7794617" lon="11.2181067"><ele>42.66666666666667</ele><time>2026-05-04T07:30:31.389Z</time></trkpt><trkpt lat="43.7794633" lon="11.2179833"><ele>42.833333333333336</ele><time>2026-05-04T07:30:34.389Z</time></trkpt><trkpt lat="43.77948" lon="11.2178967"><ele>43.0</ele><time>2026-05-04T07:30:36.389Z</time></trkpt><trkpt lat="43.77952" lon="11.2177867"><ele>42.66666666666667</ele><time>2026-05-04T07:30:38.389Z</time></trkpt><trkpt lat="43.7795717" lon="11.2177033"><ele>42.333333333333336</ele><time>2026-05-04T07:30:40.389Z</time></trkpt><trkpt lat="43.77963" lon="11.2176283"><ele>42.0</ele><time>2026-05-04T07:30:42.389Z</time></trkpt><trkpt lat="43.7796917" lon="11.2175317"><ele>41.666666666666664</ele><time>2026-05-04T07:30:45.389Z</time></trkpt><trkpt lat="43.779745" lon="11.2174233"><ele>41.33333333333333</ele><time>2026-05-04T07:30:48.389Z</time></trkpt><trkpt lat="43.7797683" lon="11.21733"><ele>41.0</ele><time>2026-05-04T07:30:50.389Z</time></trkpt><trkpt lat="43.7797717" lon="11.2172383"><ele>41.0</ele><time>2026-05-04T07:30:52.389Z</time></trkpt><trkpt lat="43.7797733" lon="11.2171333"><ele>41.0</ele><time>2026-05-04T07:30:54.389Z</time></trkpt><trkpt lat="43.7797917" lon="11.2170433"><ele>41.0</ele><time>2026-05-04T07:30:56.389Z</time></trkpt><trkpt lat="43.77983" lon="11.21693"><ele>41.0</ele><time>2026-05-04T07:30:59.389Z</time></trkpt><trkpt lat="43.779865" lon="11.2168167"><ele>41.0</ele><time>2026-05-04T07:31:02.389Z</time></trkpt><trkpt lat="43.7798983" lon="11.21671"><ele>41.0</ele><time>2026-05-04T07:31:04.39Z</time></trkpt><trkpt lat="43.77994" lon="11.21659"><ele>41.0</ele><time>2026-05-04T07:31:06.389Z</time></trkpt><trkpt lat="43.77998" lon="11.2164933"><ele>41.0</ele><time>2026-05-04T07:31:08.389Z</time></trkpt><trkpt lat="43.7800183" lon="11.2164117"><ele>41.0</ele><time>2026-05-04T07:31:10.39Z</time></trkpt><trkpt lat="43.7800517" lon="11.216325"><ele>41.0</ele><time>2026-05-04T07:31:12.389Z</time></trkpt><trkpt lat="43.7800967" lon="11.2162483"><ele>41.0</ele><time>2026-05-04T07:31:14.389Z</time></trkpt><trkpt lat="43.7801417" lon="11.21616"><ele>41.0</ele><time>2026-05-04T07:31:16.389Z</time></trkpt><trkpt lat="43.7801933" lon="11.2160667"><ele>40.666666666666664</ele><time>2026-05-04T07:31:18.389Z</time></trkpt><trkpt lat="43.780235" lon="11.2159783"><ele>40.33333333333333</ele><time>2026-05-04T07:31:20.389Z</time></trkpt><trkpt lat="43.78028" lon="11.21589"><ele>40.0</ele><time>2026-05-04T07:31:22.389Z</time></trkpt><trkpt lat="43.7803167" lon="11.2158067"><ele>39.666666666666664</ele><time>2026-05-04T07:31:24.389Z</time></trkpt><trkpt lat="43.780365" lon="11.215715"><ele>39.333333333333336</ele><time>2026-05-04T07:31:26.389Z</time></trkpt><trkpt lat="43.7804167" lon="11.2156167"><ele>39.0</ele><time>2026-05-04T07:31:28.388Z</time></trkpt><trkpt lat="43.7804683" lon="11.2155117"><ele>39.0</ele><time>2026-05-04T07:31:30.388Z</time></trkpt><trkpt lat="43.7805083" lon="11.215405"><ele>39.0</ele><time>2026-05-04T07:31:32.388Z</time></trkpt><trkpt lat="43.780555" lon="11.2153117"><ele>39.0</ele><time>2026-05-04T07:31:34.388Z</time></trkpt><trkpt lat="43.78059" lon="11.2151883"><ele>39.0</ele><time>2026-05-04T07:31:36.388Z</time></trkpt><trkpt lat="43.7806317" lon="11.2150383"><ele>39.0</ele><time>2026-05-04T07:31:38.388Z</time></trkpt><trkpt lat="43.7806617" lon="11.21487"><ele>39.166666666666664</ele><time>2026-05-04T07:31:39.388Z</time></trkpt><trkpt lat="43.7806983" lon="11.214775"><ele>39.333333333333336</ele><time>2026-05-04T07:31:41.388Z</time></trkpt><trkpt lat="43.7807367" lon="11.2146817"><ele>39.5</ele><time>2026-05-04T07:31:43.388Z</time></trkpt><trkpt lat="43.780775" lon="11.2146083"><ele>39.66666666666667</ele><time>2026-05-04T07:31:45.389Z</time></trkpt><trkpt lat="43.7808183" lon="11.2145317"><ele>39.833333333333336</ele><time>2026-05-04T07:31:47.388Z</time></trkpt><trkpt lat="43.7808667" lon="11.2144417"><ele>40.0</ele><time>2026-05-04T07:31:49.388Z</time></trkpt><trkpt lat="43.7809117" lon="11.2143467"><ele>40.0</ele><time>2026-05-04T07:31:51.388Z</time></trkpt><trkpt lat="43.7809517" lon="11.2142483"><ele>40.0</ele><time>2026-05-04T07:31:53.388Z</time></trkpt><trkpt lat="43.780975" lon="11.2141283"><ele>40.0</ele><time>2026-05-04T07:31:55.388Z</time></trkpt><trkpt lat="43.781" lon="11.21402"><ele>40.0</ele><time>2026-05-04T07:31:57.388Z</time></trkpt><trkpt lat="43.7810333" lon="11.213935"><ele>40.0</ele><time>2026-05-04T07:31:59.389Z</time></trkpt><trkpt lat="43.7810717" lon="11.2138517"><ele>40.0</ele><time>2026-05-04T07:32:01.388Z</time></trkpt><trkpt lat="43.7811117" lon="11.2137683"><ele>39.42857142857143</ele><time>2026-05-04T07:32:03.388Z</time></trkpt><trkpt lat="43.7811567" lon="11.21369"><ele>38.85714285714286</ele><time>2026-05-04T07:32:05.388Z</time></trkpt><trkpt lat="43.7811967" lon="11.2136183"><ele>38.28571428571429</ele><time>2026-05-04T07:32:07.388Z</time></trkpt><trkpt lat="43.7812367" lon="11.2135483"><ele>37.714285714285715</ele><time>2026-05-04T07:32:09.388Z</time></trkpt><trkpt lat="43.7812717" lon="11.2134717"><ele>37.142857142857146</ele><time>2026-05-04T07:32:11.388Z</time></trkpt><trkpt lat="43.78131" lon="11.2133933"><ele>36.57142857142858</ele><time>2026-05-04T07:32:13.388Z</time></trkpt><trkpt lat="43.7813617" lon="11.213295"><ele>36.0</ele><time>2026-05-04T07:32:16.388Z</time></trkpt><trkpt lat="43.7814167" lon="11.2131867"><ele>36.5</ele><time>2026-05-04T07:32:19.388Z</time></trkpt><trkpt lat="43.7814567" lon="11.213115"><ele>37.0</ele><time>2026-05-04T07:32:21.388Z</time></trkpt><trkpt lat="43.781515" lon="11.2130267"><ele>37.5</ele><time>2026-05-04T07:32:24.388Z</time></trkpt><trkpt lat="43.7815583" lon="11.2129517"><ele>38.0</ele><time>2026-05-04T07:32:27.389Z</time></trkpt><trkpt lat="43.7816" lon="11.2128767"><ele>38.5</ele><time>2026-05-04T07:32:29.388Z</time></trkpt><trkpt lat="43.7816583" lon="11.2127767"><ele>39.0</ele><time>2026-05-04T07:32:32.388Z</time></trkpt><trkpt lat="43.7817233" lon="11.2127133"><ele>39.0</ele><time>2026-05-04T07:32:35.388Z</time></trkpt><trkpt lat="43.781785" lon="11.2126317"><ele>39.0</ele><time>2026-05-04T07:32:39.388Z</time></trkpt><trkpt lat="43.781835" lon="11.2125167"><ele>39.0</ele><time>2026-05-04T07:32:42.388Z</time></trkpt><trkpt lat="43.781865" lon="11.2124133"><ele>39.0</ele><time>2026-05-04T07:32:44.388Z</time></trkpt><trkpt lat="43.7819067" lon="11.2122767"><ele>39.0</ele><time>2026-05-04T07:32:46.388Z</time></trkpt><trkpt lat="43.781945" lon="11.2121617"><ele>38.0</ele><time>2026-05-04T07:32:48.388Z</time></trkpt><trkpt lat="43.781985" lon="11.2120433"><ele>37.0</ele><time>2026-05-04T07:32:50.388Z</time></trkpt><trkpt lat="43.7820183" lon="11.211955"><ele>36.0</ele><time>2026-05-04T07:32:52.388Z</time></trkpt><trkpt lat="43.7820583" lon="11.2118867"><ele>35.0</ele><time>2026-05-04T07:32:54.388Z</time></trkpt><trkpt lat="43.7820917" lon="11.2117917"><ele>34.0</ele><time>2026-05-04T07:32:56.388Z</time></trkpt><trkpt lat="43.782135" lon="11.211705"><ele>33.0</ele><time>2026-05-04T07:32:58.388Z</time></trkpt><trkpt lat="43.7821767" lon="11.2116217"><ele>33.0</ele><time>2026-05-04T07:33:00.388Z</time></trkpt><trkpt lat="43.78222" lon="11.211545"><ele>33.0</ele><time>2026-05-04T07:33:02.388Z</time></trkpt><trkpt lat="43.7822617" lon="11.2114467"><ele>33.0</ele><time>2026-05-04T07:33:04.388Z</time></trkpt><trkpt lat="43.7823" lon="11.2113417"><ele>33.0</ele><time>2026-05-04T07:33:06.388Z</time></trkpt><trkpt lat="43.7823367" lon="11.2112333"><ele>33.0</ele><time>2026-05-04T07:33:08.388Z</time></trkpt><trkpt lat="43.7823767" lon="11.21113"><ele>33.0</ele><time>2026-05-04T07:33:10.388Z</time></trkpt><trkpt lat="43.7824133" lon="11.21102"><ele>33.333333333333336</ele><time>2026-05-04T07:33:13.388Z</time></trkpt><trkpt lat="43.7824383" lon="11.2108983"><ele>33.666666666666664</ele><time>2026-05-04T07:33:16.388Z</time></trkpt><trkpt lat="43.7824883" lon="11.210825"><ele>34.0</ele><time>2026-05-04T07:33:18.388Z</time></trkpt><trkpt lat="43.7825317" lon="11.21076"><ele>34.33333333333333</ele><time>2026-05-04T07:33:20.388Z</time></trkpt><trkpt lat="43.78259" lon="11.21067"><ele>34.666666666666664</ele><time>2026-05-04T07:33:23.388Z</time></trkpt><trkpt lat="43.7826433" lon="11.21055"><ele>35.0</ele><time>2026-05-04T07:33:26.388Z</time></trkpt><trkpt lat="43.782685" lon="11.21046"><ele>35.0</ele><time>2026-05-04T07:33:28.388Z</time></trkpt><trkpt lat="43.7827383" lon="11.2103733"><ele>35.0</ele><time>2026-05-04T07:33:30.389Z</time></trkpt><trkpt lat="43.78278" lon="11.2102867"><ele>35.0</ele><time>2026-05-04T07:33:32.388Z</time></trkpt><trkpt lat="43.7828333" lon="11.2101767"><ele>35.0</ele><time>2026-05-04T07:33:35.388Z</time></trkpt><trkpt lat="43.7828683" lon="11.21009"><ele>35.0</ele><time>2026-05-04T07:33:37.388Z</time></trkpt><trkpt lat="43.782905" lon="11.20999"><ele>35.0</ele><time>2026-05-04T07:33:39.388Z</time></trkpt><trkpt lat="43.78294" lon="11.2098933"><ele>35.666666666666664</ele><time>2026-05-04T07:33:41.388Z</time></trkpt><trkpt lat="43.7829983" lon="11.2097917"><ele>36.33333333333333</ele><time>2026-05-04T07:33:44.388Z</time></trkpt><trkpt lat="43.78305" lon="11.2097067"><ele>37.0</ele><time>2026-05-04T07:33:46.388Z</time></trkpt><trkpt lat="43.7831" lon="11.209605"><ele>37.666666666666664</ele><time>2026-05-04T07:33:48.388Z</time></trkpt><trkpt lat="43.7831483" lon="11.2095217"><ele>38.333333333333336</ele><time>2026-05-04T07:33:50.388Z</time></trkpt><trkpt lat="43.78319" lon="11.2094467"><ele>39.0</ele><time>2026-05-04T07:33:52.388Z</time></trkpt><trkpt lat="43.7832467" lon="11.2093383"><ele>39.0</ele><time>2026-05-04T07:33:55.388Z</time></trkpt><trkpt lat="43.78328" lon="11.209255"><ele>39.0</ele><time>2026-05-04T07:33:57.388Z</time></trkpt><trkpt lat="43.7833033" lon="11.20917"><ele>39.0</ele><time>2026-05-04T07:33:59.388Z</time></trkpt><trkpt lat="43.7833317" lon="11.2090817"><ele>39.0</ele><time>2026-05-04T07:34:01.388Z</time></trkpt><trkpt lat="43.7833617" lon="11.2089967"><ele>39.0</ele><time>2026-05-04T07:34:03.388Z</time></trkpt><trkpt lat="43.7833867" lon="11.2089117"><ele>39.0</ele><time>2026-05-04T07:34:05.388Z</time></trkpt><trkpt lat="43.783415" lon="11.2088283"><ele>39.0</ele><time>2026-05-04T07:34:07.388Z</time></trkpt><trkpt lat="43.783445" lon="11.2087467"><ele>38.85714285714286</ele><time>2026-05-04T07:34:09.388Z</time></trkpt><trkpt lat="43.7834833" lon="11.2086533"><ele>38.71428571428571</ele><time>2026-05-04T07:34:11.388Z</time></trkpt><trkpt lat="43.7835283" lon="11.20857"><ele>38.57142857142857</ele><time>2026-05-04T07:34:13.388Z</time></trkpt><trkpt lat="43.7835717" lon="11.2084967"><ele>38.42857142857143</ele><time>2026-05-04T07:34:15.388Z</time></trkpt><trkpt lat="43.7836167" lon="11.2084217"><ele>38.28571428571429</ele><time>2026-05-04T07:34:17.388Z</time></trkpt><trkpt lat="43.7836567" lon="11.2083283"><ele>38.14285714285714</ele><time>2026-05-04T07:34:20.388Z</time></trkpt><trkpt lat="43.783665" lon="11.2082367"><ele>38.0</ele><time>2026-05-04T07:34:23.388Z</time></trkpt><trkpt lat="43.7836833" lon="11.2081267"><ele>38.0</ele><time>2026-05-04T07:34:27.388Z</time></trkpt><trkpt lat="43.7837183" lon="11.2080283"><ele>38.0</ele><time>2026-05-04T07:34:30.388Z</time></trkpt><trkpt lat="43.7837583" lon="11.207925"><ele>38.0</ele><time>2026-05-04T07:34:33.388Z</time></trkpt><trkpt lat="43.78378" lon="11.2078383"><ele>38.0</ele><time>2026-05-04T07:34:35.389Z</time></trkpt><trkpt lat="43.7838067" lon="11.2077533"><ele>38.0</ele><time>2026-05-04T07:34:37.388Z</time></trkpt><trkpt lat="43.7838367" lon="11.2076717"><ele>38.0</ele><time>2026-05-04T07:34:39.388Z</time></trkpt><trkpt lat="43.78387" lon="11.2075783"><ele>38.0</ele><time>2026-05-04T07:34:43.389Z</time></trkpt><trkpt lat="43.78391" lon="11.2075033"><ele>38.0</ele><time>2026-05-04T07:34:48.388Z</time></trkpt><trkpt lat="43.7839467" lon="11.20743"><ele>38.0</ele><time>2026-05-04T07:34:51.388Z</time></trkpt><trkpt lat="43.78399" lon="11.2073467"><ele>38.0</ele><time>2026-05-04T07:34:54.388Z</time></trkpt><trkpt lat="43.7840283" lon="11.2072467"><ele>38.0</ele><time>2026-05-04T07:34:57.388Z</time></trkpt><trkpt lat="43.7840633" lon="11.2071567"><ele>38.0</ele><time>2026-05-04T07:34:59.388Z</time></trkpt><trkpt lat="43.784105" lon="11.2070767"><ele>38.0</ele><time>2026-05-04T07:35:01.388Z</time></trkpt><trkpt lat="43.784145" lon="11.206985"><ele>38.0</ele><time>2026-05-04T07:35:03.388Z</time></trkpt><trkpt lat="43.7841867" lon="11.2069033"><ele>37.857142857142854</ele><time>2026-05-04T07:35:05.388Z</time></trkpt><trkpt lat="43.78423" lon="11.2068267"><ele>37.714285714285715</ele><time>2026-05-04T07:35:07.388Z</time></trkpt><trkpt lat="43.7842717" lon="11.20675"><ele>37.57142857142857</ele><time>2026-05-04T07:35:09.388Z</time></trkpt><trkpt lat="43.7843183" lon="11.20665"><ele>37.42857142857143</ele><time>2026-05-04T07:35:12.388Z</time></trkpt><trkpt lat="43.7843633" lon="11.20657"><ele>37.285714285714285</ele><time>2026-05-04T07:35:14.389Z</time></trkpt><trkpt lat="43.7844067" lon="11.2065"><ele>37.142857142857146</ele><time>2026-05-04T07:35:16.388Z</time></trkpt><trkpt lat="43.7844417" lon="11.2064217"><ele>37.0</ele><time>2026-05-04T07:35:18.388Z</time></trkpt><trkpt lat="43.7844783" lon="11.2063467"><ele>37.5</ele><time>2026-05-04T07:35:20.388Z</time></trkpt><trkpt lat="43.7845283" lon="11.2062283"><ele>38.0</ele><time>2026-05-04T07:35:23.388Z</time></trkpt><trkpt lat="43.7845717" lon="11.20613"><ele>38.5</ele><time>2026-05-04T07:35:25.388Z</time></trkpt><trkpt lat="43.78462" lon="11.2060517"><ele>39.0</ele><time>2026-05-04T07:35:27.389Z</time></trkpt><trkpt lat="43.78467" lon="11.20596"><ele>39.5</ele><time>2026-05-04T07:35:29.388Z</time></trkpt><trkpt lat="43.7847183" lon="11.20586"><ele>40.0</ele><time>2026-05-04T07:35:31.388Z</time></trkpt><trkpt lat="43.78476" lon="11.20577"><ele>40.0</ele><time>2026-05-04T07:35:33.388Z</time></trkpt><trkpt lat="43.7848017" lon="11.2056817"><ele>40.0</ele><time>2026-05-04T07:35:35.388Z</time></trkpt><trkpt lat="43.78484" lon="11.2056033"><ele>40.0</ele><time>2026-05-04T07:35:37.388Z</time></trkpt><trkpt lat="43.7848917" lon="11.205495"><ele>40.0</ele><time>2026-05-04T07:35:40.388Z</time></trkpt><trkpt lat="43.7849317" lon="11.2054067"><ele>40.0</ele><time>2026-05-04T07:35:43.388Z</time></trkpt><trkpt lat="43.7849767" lon="11.2052983"><ele>40.0</ele><time>2026-05-04T07:35:46.388Z</time></trkpt><trkpt lat="43.7850333" lon="11.2051883"><ele>40.0</ele><time>2026-05-04T07:35:49.388Z</time></trkpt><trkpt lat="43.785075" lon="11.205115"><ele>40.0</ele><time>2026-05-04T07:35:51.388Z</time></trkpt><trkpt lat="43.7850783" lon="11.2050117"><ele>40.0</ele><time>2026-05-04T07:35:54.388Z</time></trkpt><trkpt lat="43.785025" lon="11.2049283"><ele>40.0</ele><time>2026-05-04T07:35:56.388Z</time></trkpt><trkpt lat="43.78495" lon="11.2048717"><ele>40.0</ele><time>2026-05-04T07:35:58.388Z</time></trkpt><trkpt lat="43.7848817" lon="11.2048383"><ele>40.0</ele><time>2026-05-04T07:36:00.388Z</time></trkpt><trkpt lat="43.7848083" lon="11.2048067"><ele>40.0</ele><time>2026-05-04T07:36:02.388Z</time></trkpt><trkpt lat="43.7847367" lon="11.2047717"><ele>40.0</ele><time>2026-05-04T07:36:04.389Z</time></trkpt><trkpt lat="43.784665" lon="11.204735"><ele>40.0</ele><time>2026-05-04T07:36:06.388Z</time></trkpt><trkpt lat="43.78458" lon="11.2047017"><ele>40.0</ele><time>2026-05-04T07:36:09.388Z</time></trkpt><trkpt lat="43.784495" lon="11.2046467"><ele>40.0</ele><time>2026-05-04T07:36:12.388Z</time></trkpt><trkpt lat="43.78443" lon="11.20464"><ele>40.0</ele><time>2026-05-04T07:36:14.388Z</time></trkpt><trkpt lat="43.7843333" lon="11.204605"><ele>40.0</ele><time>2026-05-04T07:36:17.388Z</time></trkpt><trkpt lat="43.7842683" lon="11.2045883"><ele>40.0</ele><time>2026-05-04T07:36:19.389Z</time></trkpt><trkpt lat="43.7841967" lon="11.2045567"><ele>40.0</ele><time>2026-05-04T07:36:21.388Z</time></trkpt><trkpt lat="43.78411" lon="11.2045183"><ele>40.0</ele><time>2026-05-04T07:36:23.388Z</time></trkpt><trkpt lat="43.78404" lon="11.2044983"><ele>40.0</ele><time>2026-05-04T07:36:25.388Z</time></trkpt><trkpt lat="43.7839733" lon="11.2044767"><ele>40.0</ele><time>2026-05-04T07:36:27.388Z</time></trkpt><trkpt lat="43.7838917" lon="11.204455"><ele>40.0</ele><time>2026-05-04T07:36:29.388Z</time></trkpt><trkpt lat="43.783815" lon="11.20442"><ele>40.0</ele><time>2026-05-04T07:36:31.388Z</time></trkpt><trkpt lat="43.7837417" lon="11.2043883"><ele>40.0</ele><time>2026-05-04T07:36:33.388Z</time></trkpt><trkpt lat="43.7836633" lon="11.2043417"><ele>40.0</ele><time>2026-05-04T07:36:35.388Z</time></trkpt><trkpt lat="43.7836" lon="11.204275"><ele>40.0</ele><time>2026-05-04T07:36:37.388Z</time></trkpt><trkpt lat="43.7835317" lon="11.2042383"><ele>40.0</ele><time>2026-05-04T07:36:39.389Z</time></trkpt><trkpt lat="43.7834317" lon="11.2042217"><ele>40.0</ele><time>2026-05-04T07:36:42.388Z</time></trkpt><trkpt lat="43.78337" lon="11.2041917"><ele>40.0</ele><time>2026-05-04T07:36:44.388Z</time></trkpt><trkpt lat="43.7833017" lon="11.2041683"><ele>40.0</ele><time>2026-05-04T07:36:46.388Z</time></trkpt><trkpt lat="43.78324" lon="11.20415"><ele>40.0</ele><time>2026-05-04T07:36:48.388Z</time></trkpt><trkpt lat="43.7831733" lon="11.2041317"><ele>40.0</ele><time>2026-05-04T07:36:50.388Z</time></trkpt><trkpt lat="43.7830933" lon="11.2040917"><ele>40.0</ele><time>2026-05-04T07:36:52.388Z</time></trkpt><trkpt lat="43.7829917" lon="11.2040883"><ele>40.0</ele><time>2026-05-04T07:36:54.388Z</time></trkpt><trkpt lat="43.7829033" lon="11.204075"><ele>40.0</ele><time>2026-05-04T07:36:56.388Z</time></trkpt><trkpt lat="43.7828133" lon="11.2040667"><ele>40.0</ele><time>2026-05-04T07:36:58.388Z</time></trkpt><trkpt lat="43.7827317" lon="11.2040433"><ele>40.0</ele><time>2026-05-04T07:37:00.389Z</time></trkpt><trkpt lat="43.7826533" lon="11.2039967"><ele>40.0</ele><time>2026-05-04T07:37:02.388Z</time></trkpt><trkpt lat="43.7825767" lon="11.2039583"><ele>40.0</ele><time>2026-05-04T07:37:04.388Z</time></trkpt><trkpt lat="43.782495" lon="11.2039367"><ele>39.833333333333336</ele><time>2026-05-04T07:37:06.388Z</time></trkpt><trkpt lat="43.78242" lon="11.2038983"><ele>39.66666666666667</ele><time>2026-05-04T07:37:08.388Z</time></trkpt><trkpt lat="43.782355" lon="11.2039"><ele>39.5</ele><time>2026-05-04T07:37:10.388Z</time></trkpt><trkpt lat="43.7822917" lon="11.2039317"><ele>39.333333333333336</ele><time>2026-05-04T07:37:12.388Z</time></trkpt><trkpt lat="43.7822317" lon="11.2040317"><ele>39.166666666666664</ele><time>2026-05-04T07:37:15.388Z</time></trkpt><trkpt lat="43.782205" lon="11.2041167"><ele>39.0</ele><time>2026-05-04T07:37:17.388Z</time></trkpt><trkpt lat="43.78218" lon="11.2042283"><ele>39.0</ele><time>2026-05-04T07:37:19.388Z</time></trkpt><trkpt lat="43.7821533" lon="11.2043433"><ele>39.0</ele><time>2026-05-04T07:37:21.388Z</time></trkpt><trkpt lat="43.782135" lon="11.2044617"><ele>39.0</ele><time>2026-05-04T07:37:23.388Z</time></trkpt><trkpt lat="43.7821383" lon="11.204565"><ele>39.0</ele><time>2026-05-04T07:37:25.388Z</time></trkpt><trkpt lat="43.7821317" lon="11.204655"><ele>39.0</ele><time>2026-05-04T07:37:27.387Z</time></trkpt><trkpt lat="43.7821217" lon="11.204755"><ele>39.0</ele><time>2026-05-04T07:37:31.387Z</time></trkpt><trkpt lat="43.782055" lon="11.2047533"><ele>39.0</ele><time>2026-05-04T07:37:37.387Z</time></trkpt><trkpt lat="43.7820433" lon="11.2046583"><ele>39.0</ele><time>2026-05-04T07:37:40.387Z</time></trkpt><trkpt lat="43.7820367" lon="11.20457"><ele>39.0</ele><time>2026-05-04T07:37:46.387Z</time></trkpt><trkpt lat="43.7819883" lon="11.2045033"><ele>39.0</ele><time>2026-05-04T07:38:23.387Z</time></trkpt><trkpt lat="43.781905" lon="11.20452"><ele>39.0</ele><time>2026-05-04T07:38:27.387Z</time></trkpt><trkpt lat="43.7818183" lon="11.2045133"><ele>39.0</ele><time>2026-05-04T07:38:30.387Z</time></trkpt><trkpt lat="43.7817183" lon="11.20448"><ele>39.0</ele><time>2026-05-04T07:38:34.388Z</time></trkpt><trkpt lat="43.7816167" lon="11.2044833"><ele>39.0</ele><time>2026-05-04T07:38:37.387Z</time></trkpt><trkpt lat="43.7815383" lon="11.2044917"><ele>39.0</ele><time>2026-05-04T07:38:39.387Z</time></trkpt><trkpt lat="43.7814733" lon="11.2044783"><ele>39.0</ele><time>2026-05-04T07:38:41.387Z</time></trkpt><trkpt lat="43.7814" lon="11.2045083"><ele>39.0</ele><time>2026-05-04T07:38:44.387Z</time></trkpt><trkpt lat="43.78132" lon="11.2045517"><ele>39.0</ele><time>2026-05-04T07:38:47.387Z</time></trkpt><trkpt lat="43.7812267" lon="11.204515"><ele>39.0</ele><time>2026-05-04T07:38:50.387Z</time></trkpt><trkpt lat="43.78117" lon="11.2045683"><ele>39.0</ele><time>2026-05-04T07:38:52.387Z</time></trkpt><trkpt lat="43.7810667" lon="11.204555"><ele>39.0</ele><time>2026-05-04T07:38:54.387Z</time></trkpt><trkpt lat="43.781" lon="11.204545"><ele>39.0</ele><time>2026-05-04T07:38:55.387Z</time></trkpt><trkpt lat="43.780895" lon="11.204555"><ele>39.0</ele><time>2026-05-04T07:38:57.387Z</time></trkpt><trkpt lat="43.780805" lon="11.204595"><ele>39.0</ele><time>2026-05-04T07:38:59.387Z</time></trkpt><trkpt lat="43.7807267" lon="11.2045983"><ele>38.8</ele><time>2026-05-04T07:39:01.387Z</time></trkpt><trkpt lat="43.7806467" lon="11.2046"><ele>38.599999999999994</ele><time>2026-05-04T07:39:04.387Z</time></trkpt><trkpt lat="43.7805383" lon="11.204635"><ele>38.4</ele><time>2026-05-04T07:39:07.388Z</time></trkpt><trkpt lat="43.7804517" lon="11.2046617"><ele>38.199999999999996</ele><time>2026-05-04T07:39:09.387Z</time></trkpt><trkpt lat="43.780355" lon="11.2047133"><ele>38.0</ele><time>2026-05-04T07:39:11.387Z</time></trkpt><trkpt lat="43.7802417" lon="11.2047683"><ele>38.0</ele><time>2026-05-04T07:39:13.387Z</time></trkpt><trkpt lat="43.7801433" lon="11.2048067"><ele>38.0</ele><time>2026-05-04T07:39:15.387Z</time></trkpt><trkpt lat="43.7800483" lon="11.20483"><ele>38.0</ele><time>2026-05-04T07:39:17.387Z</time></trkpt><trkpt lat="43.779965" lon="11.2048417"><ele>38.0</ele><time>2026-05-04T07:39:19.387Z</time></trkpt><trkpt lat="43.7798867" lon="11.2048517"><ele>38.0</ele><time>2026-05-04T07:39:21.387Z</time></trkpt><trkpt lat="43.779815" lon="11.2049067"><ele>38.0</ele><time>2026-05-04T07:39:23.387Z</time></trkpt><trkpt lat="43.7797533" lon="11.2049683"><ele>38.0</ele><time>2026-05-04T07:39:25.387Z</time></trkpt><trkpt lat="43.7796633" lon="11.2050067"><ele>38.0</ele><time>2026-05-04T07:39:28.387Z</time></trkpt><trkpt lat="43.779585" lon="11.204985"><ele>38.0</ele><time>2026-05-04T07:39:31.387Z</time></trkpt><trkpt lat="43.77952" lon="11.2049617"><ele>38.0</ele><time>2026-05-04T07:39:33.387Z</time></trkpt><trkpt lat="43.7794817" lon="11.2048383"><ele>38.0</ele><time>2026-05-04T07:39:36.387Z</time></trkpt><trkpt lat="43.77949" lon="11.20473"><ele>38.0</ele><time>2026-05-04T07:39:39.387Z</time></trkpt><trkpt lat="43.7794967" lon="11.2045967"><ele>38.0</ele><time>2026-05-04T07:39:42.387Z</time></trkpt><trkpt lat="43.7795117" lon="11.2044767"><ele>38.0</ele><time>2026-05-04T07:39:44.387Z</time></trkpt><trkpt lat="43.7795317" lon="11.20437"><ele>38.0</ele><time>2026-05-04T07:39:46.387Z</time></trkpt><trkpt lat="43.7795567" lon="11.20424"><ele>38.0</ele><time>2026-05-04T07:39:48.387Z</time></trkpt><trkpt lat="43.7795633" lon="11.204125"><ele>38.0</ele><time>2026-05-04T07:39:50.387Z</time></trkpt><trkpt lat="43.7795667" lon="11.2040117"><ele>38.0</ele><time>2026-05-04T07:39:52.387Z</time></trkpt><trkpt lat="43.7795867" lon="11.2038983"><ele>38.33333333333333</ele><time>2026-05-04T07:39:54.387Z</time></trkpt><trkpt lat="43.7795983" lon="11.2037983"><ele>38.666666666666664</ele><time>2026-05-04T07:39:56.388Z</time></trkpt><trkpt lat="43.7796217" lon="11.2036767"><ele>39.0</ele><time>2026-05-04T07:39:59.387Z</time></trkpt><trkpt lat="43.779655" lon="11.20357"><ele>39.333333333333336</ele><time>2026-05-04T07:40:02.387Z</time></trkpt><trkpt lat="43.77969" lon="11.2034783"><ele>39.66666666666667</ele><time>2026-05-04T07:40:05.387Z</time></trkpt><trkpt lat="43.7797283" lon="11.2033717"><ele>40.0</ele><time>2026-05-04T07:40:08.387Z</time></trkpt><trkpt lat="43.77977" lon="11.2032967"><ele>40.0</ele><time>2026-05-04T07:40:10.387Z</time></trkpt><trkpt lat="43.7798133" lon="11.2032267"><ele>40.0</ele><time>2026-05-04T07:40:12.387Z</time></trkpt><trkpt lat="43.7798467" lon="11.2031033"><ele>40.0</ele><time>2026-05-04T07:40:15.387Z</time></trkpt><trkpt lat="43.7798533" lon="11.2030133"><ele>40.0</ele><time>2026-05-04T07:40:17.387Z</time></trkpt><trkpt lat="43.7798683" lon="11.2028833"><ele>40.0</ele><time>2026-05-04T07:40:20.387Z</time></trkpt><trkpt lat="43.779895" lon="11.202785"><ele>40.0</ele><time>2026-05-04T07:40:22.387Z</time></trkpt><trkpt lat="43.7799117" lon="11.2026917"><ele>40.0</ele><time>2026-05-04T07:40:24.388Z</time></trkpt><trkpt lat="43.7799267" lon="11.2025617"><ele>40.0</ele><time>2026-05-04T07:40:27.387Z</time></trkpt><trkpt lat="43.779945" lon="11.2024633"><ele>40.0</ele><time>2026-05-04T07:40:29.387Z</time></trkpt><trkpt lat="43.7799667" lon="11.2023717"><ele>40.0</ele><time>2026-05-04T07:40:31.387Z</time></trkpt><trkpt lat="43.7799833" lon="11.2022767"><ele>40.0</ele><time>2026-05-04T07:40:33.388Z</time></trkpt><trkpt lat="43.7799967" lon="11.2021867"><ele>40.0</ele><time>2026-05-04T07:40:35.387Z</time></trkpt><trkpt lat="43.78001" lon="11.202085"><ele>40.16666666666667</ele><time>2026-05-04T07:40:37.387Z</time></trkpt><trkpt lat="43.7800167" lon="11.2019817"><ele>40.333333333333336</ele><time>2026-05-04T07:40:39.387Z</time></trkpt><trkpt lat="43.7800417" lon="11.2018733"><ele>40.5</ele><time>2026-05-04T07:40:41.388Z</time></trkpt><trkpt lat="43.78007" lon="11.2017867"><ele>40.666666666666664</ele><time>2026-05-04T07:40:43.387Z</time></trkpt><trkpt lat="43.780085" lon="11.2016867"><ele>40.83333333333333</ele><time>2026-05-04T07:40:46.387Z</time></trkpt><trkpt lat="43.78002" lon="11.2016333"><ele>41.0</ele><time>2026-05-04T07:40:50.387Z</time></trkpt><trkpt lat="43.7799433" lon="11.2015683"><ele>41.0</ele><time>2026-05-04T07:40:52.387Z</time></trkpt><trkpt lat="43.7798617" lon="11.20154"><ele>41.0</ele><time>2026-05-04T07:40:54.387Z</time></trkpt><trkpt lat="43.7797933" lon="11.2014967"><ele>41.0</ele><time>2026-05-04T07:40:56.387Z</time></trkpt><trkpt lat="43.7797267" lon="11.2014517"><ele>41.0</ele><time>2026-05-04T07:40:58.387Z</time></trkpt><trkpt lat="43.7796417" lon="11.2014017"><ele>41.0</ele><time>2026-05-04T07:41:00.388Z</time></trkpt><trkpt lat="43.7795683" lon="11.20137"><ele>41.0</ele><time>2026-05-04T07:41:02.387Z</time></trkpt><trkpt lat="43.7794833" lon="11.2013367"><ele>40.83333333333333</ele><time>2026-05-04T07:41:04.387Z</time></trkpt><trkpt lat="43.7794033" lon="11.2013083"><ele>40.666666666666664</ele><time>2026-05-04T07:41:06.387Z</time></trkpt><trkpt lat="43.779335" lon="11.201275"><ele>40.5</ele><time>2026-05-04T07:41:08.387Z</time></trkpt><trkpt lat="43.7792433" lon="11.2012283"><ele>40.333333333333336</ele><time>2026-05-04T07:41:10.388Z</time></trkpt><trkpt lat="43.77916" lon="11.2011667"><ele>40.16666666666667</ele><time>2026-05-04T07:41:12.387Z</time></trkpt><trkpt lat="43.77908" lon="11.2011183"><ele>40.0</ele><time>2026-05-04T07:41:14.387Z</time></trkpt><trkpt lat="43.77901" lon="11.2010383"><ele>40.0</ele><time>2026-05-04T07:41:17.387Z</time></trkpt><trkpt lat="43.7789467" lon="11.200975"><ele>40.0</ele><time>2026-05-04T07:41:19.387Z</time></trkpt><trkpt lat="43.778885" lon="11.2009133"><ele>40.0</ele><time>2026-05-04T07:41:21.387Z</time></trkpt><trkpt lat="43.77883" lon="11.2008683"><ele>40.0</ele><time>2026-05-04T07:41:23.387Z</time></trkpt><trkpt lat="43.7787733" lon="11.2008267"><ele>40.0</ele><time>2026-05-04T07:41:25.387Z</time></trkpt><trkpt lat="43.7787117" lon="11.2007783"><ele>40.0</ele><time>2026-05-04T07:41:27.387Z</time></trkpt><trkpt lat="43.7786367" lon="11.2007083"><ele>40.0</ele><time>2026-05-04T07:41:30.387Z</time></trkpt><trkpt lat="43.7785633" lon="11.20069"><ele>40.0</ele><time>2026-05-04T07:41:33.387Z</time></trkpt><trkpt lat="43.77849" lon="11.2007033"><ele>40.0</ele><time>2026-05-04T07:41:37.387Z</time></trkpt><trkpt lat="43.7784483" lon="11.2007817"><ele>40.0</ele><time>2026-05-04T07:41:44.387Z</time></trkpt><trkpt lat="43.7784083" lon="11.2006883"><ele>40.0</ele><time>2026-05-04T07:42:03.387Z</time></trkpt><trkpt lat="43.7783233" lon="11.2006517"><ele>40.0</ele><time>2026-05-04T07:42:06.387Z</time></trkpt><trkpt lat="43.7782567" lon="11.2006217"><ele>40.0</ele><time>2026-05-04T07:42:10.387Z</time></trkpt><trkpt lat="43.77821" lon="11.200555"><ele>40.0</ele><time>2026-05-04T07:42:26.388Z</time></trkpt><trkpt lat="43.7782933" lon="11.2004967"><ele>40.0</ele><time>2026-05-04T07:42:50.387Z</time></trkpt><trkpt lat="43.77822" lon="11.20042"><ele>40.0</ele><time>2026-05-04T07:42:54.386Z</time></trkpt><trkpt lat="43.7781617" lon="11.2003817"><ele>40.0</ele><time>2026-05-04T07:42:57.386Z</time></trkpt><trkpt lat="43.77815" lon="11.2002883"><ele>40.0</ele><time>2026-05-04T07:43:02.386Z</time></trkpt><trkpt lat="43.7781067" lon="11.2002067"><ele>40.0</ele><time>2026-05-04T07:43:05.386Z</time></trkpt><trkpt lat="43.7780683" lon="11.20013"><ele>40.0</ele><time>2026-05-04T07:43:08.386Z</time></trkpt><trkpt lat="43.7780017" lon="11.2001067"><ele>40.0</ele><time>2026-05-04T07:43:11.386Z</time></trkpt><trkpt lat="43.7779833" lon="11.2000183"><ele>40.0</ele><time>2026-05-04T07:45:18.386Z</time></trkpt><trkpt lat="43.7780657" lon="11.2002501"><ele>40.0</ele><time>2026-05-04T07:45:39.567Z</time></trkpt><trkpt lat="43.7781167" lon="11.1999233"><ele>40.0</ele><time>2026-05-04T07:45:55.39Z</time></trkpt><trkpt lat="43.7780033" lon="11.1999583"><ele>40.0</ele><time>2026-05-04T07:45:59.39Z</time></trkpt><trkpt lat="43.7779817" lon="11.2000583"><ele>40.0</ele><time>2026-05-04T07:46:00.39Z</time></trkpt><trkpt lat="43.7779083" lon="11.200145"><ele>40.0</ele><time>2026-05-04T07:46:13.39Z</time></trkpt><trkpt lat="43.7779917" lon="11.2001333"><ele>40.0</ele><time>2026-05-04T07:46:23.39Z</time></trkpt><trkpt lat="43.7779783" lon="11.20004"><ele>40.0</ele><time>2026-05-04T07:46:30.39Z</time></trkpt><trkpt lat="43.7779467" lon="11.1999333"><ele>40.0</ele><time>2026-05-04T07:46:32.39Z</time></trkpt><trkpt lat="43.7779517" lon="11.1998417"><ele>40.0</ele><time>2026-05-04T07:46:35.39Z</time></trkpt><trkpt lat="43.778025" lon="11.1998"><ele>40.0</ele><time>2026-05-04T07:46:38.39Z</time></trkpt><trkpt lat="43.7779433" lon="11.1999617"><ele>40.0</ele><time>2026-05-04T07:46:45.39Z</time></trkpt><trkpt lat="43.7779017" lon="11.2000483"><ele>40.0</ele><time>2026-05-04T07:46:49.39Z</time></trkpt><trkpt lat="43.7779083" lon="11.200175"><ele>40.0</ele><time>2026-05-04T07:46:52.39Z</time></trkpt><trkpt lat="43.7778817" lon="11.2003017"><ele>40.0</ele><time>2026-05-04T07:46:55.39Z</time></trkpt><trkpt lat="43.777935" lon="11.2002483"><ele>40.0</ele><time>2026-05-04T07:47:13.39Z</time></trkpt><trkpt lat="43.77802" lon="11.2001867"><ele>40.0</ele><time>2026-05-04T07:47:19.39Z</time></trkpt><trkpt lat="43.7780967" lon="11.200165"><ele>40.0</ele><time>2026-05-04T07:47:31.39Z</time></trkpt><trkpt lat="43.778055" lon="11.2000983"><ele>40.0</ele><time>2026-05-04T07:47:50.39Z</time></trkpt><trkpt lat="43.77809" lon="11.2000217"><ele>40.0</ele><time>2026-05-04T07:48:05.389Z</time></trkpt><trkpt lat="43.7780767" lon="11.2001283"><ele>40.0</ele><time>2026-05-04T07:50:21.389Z</time></trkpt><trkpt lat="43.7779817" lon="11.200185"><ele>40.0</ele><time>2026-05-04T07:50:23.389Z</time></trkpt><trkpt lat="43.7779783" lon="11.200005"><ele>40.0</ele><time>2026-05-04T07:52:11.391Z</time></trkpt><trkpt lat="43.77788" lon="11.20005"><ele>40.0</ele><time>2026-05-04T07:52:17.391Z</time></trkpt><trkpt lat="43.7778733" lon="11.200155"><ele>40.0</ele><time>2026-05-04T07:52:25.391Z</time></trkpt><trkpt lat="43.7779533" lon="11.2001583"><ele>40.0</ele><time>2026-05-04T07:52:33.391Z</time></trkpt><trkpt lat="43.7780233" lon="11.20008"><ele>40.0</ele><time>2026-05-04T07:52:35.391Z</time></trkpt><trkpt lat="43.77805" lon="11.2"><ele>40.0</ele><time>2026-05-04T07:52:37.391Z</time></trkpt><trkpt lat="43.7781217" lon="11.1999817"><ele>40.0</ele><time>2026-05-04T07:52:44.391Z</time></trkpt><trkpt lat="43.77811" lon="11.20007"><ele>40.0</ele><time>2026-05-04T07:52:50.39Z</time></trkpt><trkpt lat="43.7780483" lon="11.2001333"><ele>40.0</ele><time>2026-05-04T07:52:55.39Z</time></trkpt><trkpt lat="43.7781167" lon="11.20003"><ele>40.0</ele><time>2026-05-04T07:53:21.39Z</time></trkpt><trkpt lat="43.7780767" lon="11.2001117"><ele>40.0</ele><time>2026-05-04T07:53:32.39Z</time></trkpt><trkpt lat="43.7780133" lon="11.2001433"><ele>40.0</ele><time>2026-05-04T07:53:39.39Z</time></trkpt><trkpt lat="43.7779383" lon="11.2001533"><ele>40.0</ele><time>2026-05-04T07:53:42.39Z</time></trkpt><trkpt lat="43.7779067" lon="11.200075"><ele>40.0</ele><time>2026-05-04T07:54:43.39Z</time></trkpt><trkpt lat="43.7778867" lon="11.1999917"><ele>40.0</ele><time>2026-05-04T07:54:55.39Z</time></trkpt><trkpt lat="43.777905" lon="11.199905"><ele>40.0</ele><time>2026-05-04T07:54:58.39Z</time></trkpt><trkpt lat="43.7780083" lon="11.19991"><ele>40.0</ele><time>2026-05-04T07:55:03.39Z</time></trkpt><trkpt lat="43.77807" lon="11.1998833"><ele>40.0</ele><time>2026-05-04T07:55:04.39Z</time></trkpt><trkpt lat="43.7781383" lon="11.1999183"><ele>40.0</ele><time>2026-05-04T07:55:07.39Z</time></trkpt><trkpt lat="43.7781133" lon="11.2000033"><ele>40.0</ele><time>2026-05-04T07:55:08.39Z</time></trkpt><trkpt lat="43.7780467" lon="11.200095"><ele>40.0</ele><time>2026-05-04T07:55:14.39Z</time></trkpt><trkpt lat="43.7779717" lon="11.2002083"><ele>40.0</ele><time>2026-05-04T07:55:16.39Z</time></trkpt><trkpt lat="43.777965" lon="11.2001133"><ele>40.0</ele><time>2026-05-04T07:55:22.39Z</time></trkpt><trkpt lat="43.7780133" lon="11.200185"><ele>40.0</ele><time>2026-05-04T07:55:28.39Z</time></trkpt><trkpt lat="43.7780717" lon="11.2002517"><ele>40.0</ele><time>2026-05-04T07:55:37.39Z</time></trkpt><trkpt lat="43.7780423" lon="11.2001672"><ele>40.0</ele><time>2026-05-04T07:56:13.39Z</time></trkpt><trkpt lat="43.777985" lon="11.2001283"><ele>40.0</ele><time>2026-05-04T07:56:18.391Z</time></trkpt><trkpt lat="43.7779161" lon="11.2000246"><ele>40.0</ele><time>2026-05-04T07:56:36.39Z</time></trkpt><trkpt lat="43.7778584" lon="11.1999782"><ele>40.0</ele><time>2026-05-04T07:56:42.391Z</time></trkpt><trkpt lat="43.7777878" lon="11.1999692"><ele>40.0</ele><time>2026-05-04T07:56:47.39Z</time></trkpt><trkpt lat="43.7777178" lon="11.1999611"><ele>39.66666666666667</ele><time>2026-05-04T07:56:52.39Z</time></trkpt><trkpt lat="43.7776382" lon="11.1999028"><ele>39.333333333333336</ele><time>2026-05-04T07:57:35.389Z</time></trkpt><trkpt lat="43.7775686" lon="11.1998814"><ele>39.0</ele><time>2026-05-04T07:57:40.389Z</time></trkpt><trkpt lat="43.7775037" lon="11.1998989"><ele>38.666666666666664</ele><time>2026-05-04T07:57:49.39Z</time></trkpt><trkpt lat="43.777441" lon="11.1999706"><ele>38.33333333333333</ele><time>2026-05-04T07:58:12.389Z</time></trkpt><trkpt lat="43.7774938" lon="11.1999025"><ele>38.0</ele><time>2026-05-04T07:58:51.389Z</time></trkpt><trkpt lat="43.7774871" lon="11.2000025"><ele>38.0</ele><time>2026-05-04T07:59:47.389Z</time></trkpt><trkpt lat="43.7774889" lon="11.1999137"><ele>38.0</ele><time>2026-05-04T08:00:04.389Z</time></trkpt><trkpt lat="43.7775164" lon="11.1998324"><ele>38.0</ele><time>2026-05-04T08:00:10.389Z</time></trkpt><trkpt lat="43.7775821" lon="11.1998257"><ele>38.0</ele><time>2026-05-04T08:00:19.389Z</time></trkpt><trkpt lat="43.7776458" lon="11.199854"><ele>38.0</ele><time>2026-05-04T08:00:27.389Z</time></trkpt><trkpt lat="43.7776931" lon="11.1997132"><ele>38.0</ele><time>2026-05-04T08:00:53.389Z</time></trkpt><trkpt lat="43.7777321" lon="11.1996404"><ele>38.0</ele><time>2026-05-04T08:01:03.389Z</time></trkpt><trkpt lat="43.7777686" lon="11.1995616"><ele>38.285714285714285</ele><time>2026-05-04T08:01:11.389Z</time></trkpt><trkpt lat="43.7778312" lon="11.199579"><ele>38.57142857142858</ele><time>2026-05-04T08:01:24.388Z</time></trkpt><trkpt lat="43.7778908" lon="11.1996228"><ele>38.85714285714286</ele><time>2026-05-04T08:01:32.388Z</time></trkpt><trkpt lat="43.7779522" lon="11.1996734"><ele>39.14285714285714</ele><time>2026-05-04T08:01:39.388Z</time></trkpt><trkpt lat="43.7780206" lon="11.1996762"><ele>39.42857142857143</ele><time>2026-05-04T08:01:45.388Z</time></trkpt><trkpt lat="43.7780444" lon="11.1997605"><ele>39.714285714285715</ele><time>2026-05-04T08:01:59.388Z</time></trkpt><trkpt lat="43.7779928" lon="11.1998369"><ele>40.0</ele><time>2026-05-04T08:02:05.388Z</time></trkpt><trkpt lat="43.777937" lon="11.1998867"><ele>40.0</ele><time>2026-05-04T08:02:13.388Z</time></trkpt><trkpt lat="43.7778905" lon="11.1999469"><ele>40.0</ele><time>2026-05-04T08:02:24.388Z</time></trkpt><trkpt lat="43.7779526" lon="11.1999212"><ele>40.0</ele><time>2026-05-04T08:03:48.388Z</time></trkpt><trkpt lat="43.7780139" lon="11.19988"><ele>40.0</ele><time>2026-05-04T08:04:00.388Z</time></trkpt><trkpt lat="43.7780039" lon="11.1997815"><ele>40.0</ele><time>2026-05-04T08:04:36.389Z</time></trkpt><trkpt lat="43.7779978" lon="11.1996892"><ele>40.0</ele><time>2026-05-04T08:04:47.389Z</time></trkpt><trkpt lat="43.7779319" lon="11.1996504"><ele>40.0</ele><time>2026-05-04T08:04:54.388Z</time></trkpt><trkpt lat="43.7778689" lon="11.1996172"><ele>40.14285714285714</ele><time>2026-05-04T08:08:42.387Z</time></trkpt><trkpt lat="43.7778081" lon="11.199582"><ele>40.285714285714285</ele><time>2026-05-04T08:08:51.387Z</time></trkpt><trkpt lat="43.7777746" lon="11.199662"><ele>40.42857142857143</ele><time>2026-05-04T08:09:02.387Z</time></trkpt><trkpt lat="43.777781" lon="11.1995724"><ele>40.57142857142857</ele><time>2026-05-04T08:09:18.386Z</time></trkpt><trkpt lat="43.7778433" lon="11.1995511"><ele>40.714285714285715</ele><time>2026-05-04T08:09:30.386Z</time></trkpt><trkpt lat="43.777801" lon="11.199617"><ele>40.857142857142854</ele><time>2026-05-04T08:10:39.386Z</time></trkpt><trkpt lat="43.7777863" lon="11.1997148"><ele>41.0</ele><time>2026-05-04T08:11:47.386Z</time></trkpt><trkpt lat="43.7777548" lon="11.1996133"><ele>40.99999999999999</ele><time>2026-05-04T08:12:01.386Z</time></trkpt><trkpt lat="43.777706" lon="11.1996731"><ele>41.0</ele><time>2026-05-04T08:12:12.386Z</time></trkpt><trkpt lat="43.7776876" lon="11.1997572"><ele>41.0</ele><time>2026-05-04T08:12:19.386Z</time></trkpt><trkpt lat="43.7776527" lon="11.1998442"><ele>41.0</ele><time>2026-05-04T08:12:26.386Z</time></trkpt><trkpt lat="43.7775874" lon="11.1998471"><ele>41.0</ele><time>2026-05-04T08:12:34.386Z</time></trkpt><trkpt lat="43.7776509" lon="11.1998936"><ele>40.99999999999999</ele><time>2026-05-04T08:14:10.385Z</time></trkpt><trkpt lat="43.777604" lon="11.1998274"><ele>41.0</ele><time>2026-05-04T08:14:41.385Z</time></trkpt><trkpt lat="43.7775305" lon="11.1999007"><ele>40.5</ele><time>2026-05-04T08:15:04.385Z</time></trkpt><trkpt lat="43.7774955" lon="11.1999758"><ele>40.0</ele><time>2026-05-04T08:15:15.386Z</time></trkpt><trkpt lat="43.7775455" lon="11.1998011"><ele>39.5</ele><time>2026-05-04T08:17:09.384Z</time></trkpt><trkpt lat="43.7774816" lon="11.1998228"><ele>39.0</ele><time>2026-05-04T08:17:20.384Z</time></trkpt><trkpt lat="43.7774516" lon="11.199902"><ele>38.5</ele><time>2026-05-04T08:17:26.384Z</time></trkpt><trkpt lat="43.7774328" lon="11.1999939"><ele>38.0</ele><time>2026-05-04T08:17:32.384Z</time></trkpt><trkpt lat="43.7774591" lon="11.1998898"><ele>38.0</ele><time>2026-05-04T08:20:18.383Z</time></trkpt><trkpt lat="43.7774929" lon="11.1998139"><ele>38.0</ele><time>2026-05-04T08:20:25.383Z</time></trkpt><trkpt lat="43.7775392" lon="11.1999455"><ele>38.0</ele><time>2026-05-04T08:21:58.384Z</time></trkpt><trkpt lat="43.7774907" lon="11.2000242"><ele>38.0</ele><time>2026-05-04T08:22:04.383Z</time></trkpt><trkpt lat="43.7774671" lon="11.200108"><ele>38.0</ele><time>2026-05-04T08:22:13.383Z</time></trkpt><trkpt lat="43.7774658" lon="11.2000142"><ele>38.0</ele><time>2026-05-04T08:22:32.383Z</time></trkpt><trkpt lat="43.7775095" lon="11.1999252"><ele>38.0</ele><time>2026-05-04T08:24:43.382Z</time></trkpt><trkpt lat="43.7774866" lon="11.2000148"><ele>38.0</ele><time>2026-05-04T08:25:01.382Z</time></trkpt><trkpt lat="43.7774967" lon="11.1999267"><ele>38.0</ele><time>2026-05-04T08:28:55.381Z</time></trkpt><trkpt lat="43.77755" lon="11.1998483"><ele>38.0</ele><time>2026-05-04T08:31:03.38Z</time></trkpt><trkpt lat="43.777505" lon="11.1999367"><ele>38.0</ele><time>2026-05-04T08:31:45.38Z</time></trkpt><trkpt lat="43.7774783" lon="11.2000233"><ele>38.0</ele><time>2026-05-04T08:31:51.38Z</time></trkpt><trkpt lat="43.777415" lon="11.2000483"><ele>38.0</ele><time>2026-05-04T08:32:01.38Z</time></trkpt><trkpt lat="43.777475" lon="11.1999717"><ele>38.0</ele><time>2026-05-04T08:35:01.379Z</time></trkpt><trkpt lat="43.7775159" lon="11.1999033"><ele>38.0</ele><time>2026-05-04T08:35:14.38Z</time></trkpt><trkpt lat="43.7775218" lon="11.1998155"><ele>38.0</ele><time>2026-05-04T08:36:15.379Z</time></trkpt><trkpt lat="43.7775911" lon="11.1998769"><ele>38.0</ele><time>2026-05-04T08:36:37.379Z</time></trkpt><trkpt lat="43.7775325" lon="11.199915"><ele>38.0</ele><time>2026-05-04T08:37:51.378Z</time></trkpt><trkpt lat="43.7775105" lon="11.2000033"><ele>38.0</ele><time>2026-05-04T08:38:02.378Z</time></trkpt><trkpt lat="43.7775083" lon="11.1999033"><ele>38.0</ele><time>2026-05-04T08:40:21.379Z</time></trkpt><trkpt lat="43.77754" lon="11.1998217"><ele>38.0</ele><time>2026-05-04T08:40:31.378Z</time></trkpt><trkpt lat="43.7775211" lon="11.199912"><ele>38.0</ele><time>2026-05-04T08:40:45.379Z</time></trkpt><trkpt lat="43.7775" lon="11.2000118"><ele>38.0</ele><time>2026-05-04T08:40:52.378Z</time></trkpt><trkpt lat="43.777475" lon="11.2001019"><ele>38.0</ele><time>2026-05-04T08:40:57.379Z</time></trkpt><trkpt lat="43.7774734" lon="11.2000128"><ele>38.0</ele><time>2026-05-04T08:41:30.377Z</time></trkpt><trkpt lat="43.7774591" lon="11.2001199"><ele>38.0</ele><time>2026-05-04T08:42:00.377Z</time></trkpt><trkpt lat="43.7774408" lon="11.2000361"><ele>38.0</ele><time>2026-05-04T08:42:21.377Z</time></trkpt><trkpt lat="43.7774965" lon="11.1999686"><ele>38.0</ele><time>2026-05-04T08:43:49.377Z</time></trkpt><trkpt lat="43.7774383" lon="11.2000089"><ele>38.0</ele><time>2026-05-04T08:43:58.378Z</time></trkpt><trkpt lat="43.7774609" lon="11.2001036"><ele>38.0</ele><time>2026-05-04T08:44:38.377Z</time></trkpt><trkpt lat="43.7774617" lon="11.2000137"><ele>38.0</ele><time>2026-05-04T08:46:16.376Z</time></trkpt><trkpt lat="43.7774985" lon="11.1999291"><ele>38.0</ele><time>2026-05-04T08:47:03.376Z</time></trkpt><trkpt lat="43.7774671" lon="11.200134"><ele>38.0</ele><time>2026-05-04T08:47:56.376Z</time></trkpt><trkpt lat="43.7774678" lon="11.200044"><ele>38.0</ele><time>2026-05-04T08:48:07.375Z</time></trkpt><trkpt lat="43.7774745" lon="11.1999443"><ele>38.0</ele><time>2026-05-04T08:50:36.375Z</time></trkpt><trkpt lat="43.7775299" lon="11.1998803"><ele>38.0</ele><time>2026-05-04T08:51:11.375Z</time></trkpt><trkpt lat="43.7775861" lon="11.1998405"><ele>38.0</ele><time>2026-05-04T08:51:27.376Z</time></trkpt><trkpt lat="43.7776492" lon="11.1997944"><ele>38.0</ele><time>2026-05-04T08:51:36.374Z</time></trkpt><trkpt lat="43.777701" lon="11.1997222"><ele>38.0</ele><time>2026-05-04T08:51:43.374Z</time></trkpt><trkpt lat="43.7777507" lon="11.19966"><ele>38.0</ele><time>2026-05-04T08:51:51.374Z</time></trkpt><trkpt lat="43.7777791" lon="11.1995647"><ele>38.599999999999994</ele><time>2026-05-04T08:51:57.374Z</time></trkpt><trkpt lat="43.7778169" lon="11.1994818"><ele>39.199999999999996</ele><time>2026-05-04T08:52:04.374Z</time></trkpt><trkpt lat="43.7779281" lon="11.1995583"><ele>39.8</ele><time>2026-05-04T08:52:23.374Z</time></trkpt><trkpt lat="43.778047" lon="11.199579"><ele>40.4</ele><time>2026-05-04T08:52:51.374Z</time></trkpt><trkpt lat="43.777927" lon="11.199535"><ele>41.0</ele><time>2026-05-04T08:53:35.374Z</time></trkpt><trkpt lat="43.7778605" lon="11.199507"><ele>40.99999999999999</ele><time>2026-05-04T08:53:43.374Z</time></trkpt><trkpt lat="43.7778132" lon="11.1995891"><ele>41.0</ele><time>2026-05-04T08:54:01.374Z</time></trkpt><trkpt lat="43.7777722" lon="11.1996594"><ele>41.0</ele><time>2026-05-04T08:54:10.374Z</time></trkpt><trkpt lat="43.7777277" lon="11.1997274"><ele>41.0</ele><time>2026-05-04T08:54:17.374Z</time></trkpt><trkpt lat="43.7776836" lon="11.1997904"><ele>41.0</ele><time>2026-05-04T08:54:24.374Z</time></trkpt><trkpt lat="43.7777367" lon="11.1997301"><ele>40.99999999999999</ele><time>2026-05-04T08:55:35.373Z</time></trkpt><trkpt lat="43.7777774" lon="11.1996522"><ele>41.0</ele><time>2026-05-04T08:55:42.373Z</time></trkpt><trkpt lat="43.7777174" lon="11.19971"><ele>40.83333333333333</ele><time>2026-05-04T08:56:04.373Z</time></trkpt><trkpt lat="43.7776825" lon="11.1998026"><ele>40.666666666666664</ele><time>2026-05-04T08:56:09.373Z</time></trkpt><trkpt lat="43.7777288" lon="11.1999791"><ele>40.5</ele><time>2026-05-04T08:56:40.373Z</time></trkpt><trkpt lat="43.7777867" lon="11.2000234"><ele>40.333333333333336</ele><time>2026-05-04T08:56:46.373Z</time></trkpt><trkpt lat="43.77785" lon="11.2000753"><ele>40.16666666666667</ele><time>2026-05-04T08:56:57.373Z</time></trkpt><trkpt lat="43.7779079" lon="11.2001106"><ele>40.0</ele><time>2026-05-04T08:57:05.373Z</time></trkpt><trkpt lat="43.7779532" lon="11.2001791"><ele>40.0</ele><time>2026-05-04T08:57:12.373Z</time></trkpt><trkpt lat="43.7778952" lon="11.2002303"><ele>40.0</ele><time>2026-05-04T08:57:28.373Z</time></trkpt><trkpt lat="43.7778534" lon="11.2002963"><ele>40.0</ele><time>2026-05-04T08:57:33.373Z</time></trkpt><trkpt lat="43.7778012" lon="11.2003478"><ele>40.0</ele><time>2026-05-04T08:57:37.373Z</time></trkpt><trkpt lat="43.7777417" lon="11.2004176"><ele>40.0</ele><time>2026-05-04T08:57:40.373Z</time></trkpt><trkpt lat="43.777668" lon="11.2004814"><ele>40.0</ele><time>2026-05-04T08:57:44.373Z</time></trkpt><trkpt lat="43.7775905" lon="11.2004801"><ele>40.0</ele><time>2026-05-04T08:57:46.373Z</time></trkpt><trkpt lat="43.7776654" lon="11.2003986"><ele>40.0</ele><time>2026-05-04T08:57:49.374Z</time></trkpt><trkpt lat="43.777758" lon="11.2003267"><ele>40.0</ele><time>2026-05-04T08:57:51.373Z</time></trkpt><trkpt lat="43.7778408" lon="11.2002522"><ele>40.0</ele><time>2026-05-04T08:57:53.373Z</time></trkpt><trkpt lat="43.7779017" lon="11.2002218"><ele>40.0</ele><time>2026-05-04T08:57:56.374Z</time></trkpt><trkpt lat="43.7778458" lon="11.2000982"><ele>40.0</ele><time>2026-05-04T08:58:07.373Z</time></trkpt><trkpt lat="43.7778682" lon="11.2000075"><ele>40.0</ele><time>2026-05-04T08:58:18.373Z</time></trkpt><trkpt lat="43.777914" lon="11.200069"><ele>40.0</ele><time>2026-05-04T08:58:30.373Z</time></trkpt><trkpt lat="43.7778642" lon="11.2001318"><ele>40.0</ele><time>2026-05-04T08:58:37.372Z</time></trkpt><trkpt lat="43.7779362" lon="11.2000802"><ele>40.0</ele><time>2026-05-04T08:58:41.372Z</time></trkpt><trkpt lat="43.7779822" lon="11.1998753"><ele>40.0</ele><time>2026-05-04T08:58:50.372Z</time></trkpt><trkpt lat="43.7779457" lon="11.1997908"><ele>40.0</ele><time>2026-05-04T08:58:54.372Z</time></trkpt><trkpt lat="43.7778681" lon="11.1997351"><ele>40.0</ele><time>2026-05-04T08:58:55.372Z</time></trkpt><trkpt lat="43.7778045" lon="11.19975"><ele>40.0</ele><time>2026-05-04T08:58:59.372Z</time></trkpt><trkpt lat="43.7777673" lon="11.1998301"><ele>40.0</ele><time>2026-05-04T08:59:06.373Z</time></trkpt><trkpt lat="43.7778296" lon="11.1998996"><ele>40.0</ele><time>2026-05-04T08:59:13.372Z</time></trkpt><trkpt lat="43.7778611" lon="11.199986"><ele>40.0</ele><time>2026-05-04T08:59:16.372Z</time></trkpt><trkpt lat="43.7779282" lon="11.2000101"><ele>40.0</ele><time>2026-05-04T08:59:35.391Z</time></trkpt><trkpt lat="43.7779628" lon="11.2001631"><ele>40.0</ele><time>2026-05-04T08:59:40.391Z</time></trkpt><trkpt lat="43.7780102" lon="11.2002296"><ele>40.0</ele><time>2026-05-04T08:59:42.391Z</time></trkpt><trkpt lat="43.7779392" lon="11.2001867"><ele>40.0</ele><time>2026-05-04T09:00:23.39Z</time></trkpt><trkpt lat="43.7779239" lon="11.2000937"><ele>40.0</ele><time>2026-05-04T09:00:24.389Z</time></trkpt><trkpt lat="43.7778601" lon="11.2000486"><ele>40.0</ele><time>2026-05-04T09:00:35.389Z</time></trkpt><trkpt lat="43.7777945" lon="11.1999948"><ele>40.0</ele><time>2026-05-04T09:01:04.389Z</time></trkpt><trkpt lat="43.7777257" lon="11.1999737"><ele>40.0</ele><time>2026-05-04T09:01:09.389Z</time></trkpt><trkpt lat="43.7776692" lon="11.1999302"><ele>40.0</ele><time>2026-05-04T09:01:15.389Z</time></trkpt><trkpt lat="43.7777594" lon="11.1999619"><ele>40.0</ele><time>2026-05-04T09:02:41.388Z</time></trkpt><trkpt lat="43.777817" lon="11.2000008"><ele>40.0</ele><time>2026-05-04T09:02:46.388Z</time></trkpt><trkpt lat="43.7778891" lon="11.2000566"><ele>40.0</ele><time>2026-05-04T09:03:22.388Z</time></trkpt><trkpt lat="43.7779504" lon="11.2000938"><ele>40.0</ele><time>2026-05-04T09:03:26.388Z</time></trkpt><trkpt lat="43.7779299" lon="11.2001848"><ele>40.0</ele><time>2026-05-04T09:03:38.388Z</time></trkpt><trkpt lat="43.7779049" lon="11.2003811"><ele>40.0</ele><time>2026-05-04T09:03:48.39Z</time></trkpt><trkpt lat="43.7778545" lon="11.2004887"><ele>40.0</ele><time>2026-05-04T09:03:49.39Z</time></trkpt><trkpt lat="43.7779016" lon="11.2004172"><ele>40.0</ele><time>2026-05-04T09:03:54.39Z</time></trkpt><trkpt lat="43.7779816" lon="11.2003021"><ele>40.0</ele><time>2026-05-04T09:03:57.39Z</time></trkpt><trkpt lat="43.7778744" lon="11.2001889"><ele>40.0</ele><time>2026-05-04T09:04:08.39Z</time></trkpt><trkpt lat="43.777809" lon="11.2001228"><ele>40.0</ele><time>2026-05-04T09:04:11.39Z</time></trkpt><trkpt lat="43.7778809" lon="11.2001733"><ele>40.0</ele><time>2026-05-04T09:04:17.39Z</time></trkpt><trkpt lat="43.7778757" lon="11.2000811"><ele>40.0</ele><time>2026-05-04T09:04:26.39Z</time></trkpt><trkpt lat="43.777815" lon="11.2000305"><ele>40.0</ele><time>2026-05-04T09:04:32.39Z</time></trkpt><trkpt lat="43.7777491" lon="11.2000263"><ele>40.0</ele><time>2026-05-04T09:04:36.39Z</time></trkpt><trkpt lat="43.7776782" lon="11.2000051"><ele>40.0</ele><time>2026-05-04T09:04:42.39Z</time></trkpt><trkpt lat="43.7776438" lon="11.1998792"><ele>39.714285714285715</ele><time>2026-05-04T09:07:36.389Z</time></trkpt><trkpt lat="43.7775776" lon="11.1998456"><ele>39.42857142857143</ele><time>2026-05-04T09:07:46.389Z</time></trkpt><trkpt lat="43.7775081" lon="11.199793"><ele>39.14285714285714</ele><time>2026-05-04T09:08:00.389Z</time></trkpt><trkpt lat="43.777459" lon="11.1997383"><ele>38.85714285714286</ele><time>2026-05-04T09:08:10.389Z</time></trkpt><trkpt lat="43.7775205" lon="11.1997865"><ele>38.57142857142858</ele><time>2026-05-04T09:10:17.388Z</time></trkpt><trkpt lat="43.7775772" lon="11.199857"><ele>38.285714285714285</ele><time>2026-05-04T09:11:22.388Z</time></trkpt><trkpt lat="43.7775806" lon="11.1999478"><ele>38.0</ele><time>2026-05-04T09:11:30.388Z</time></trkpt><trkpt lat="43.777547" lon="11.2000266"><ele>38.0</ele><time>2026-05-04T09:11:40.388Z</time></trkpt><trkpt lat="43.7774985" lon="11.2000893"><ele>38.0</ele><time>2026-05-04T09:11:52.388Z</time></trkpt><trkpt lat="43.7775602" lon="11.200054"><ele>38.0</ele><time>2026-05-04T09:12:59.387Z</time></trkpt><trkpt lat="43.777585" lon="11.19997"><ele>38.0</ele><time>2026-05-04T09:14:02.387Z</time></trkpt><trkpt lat="43.7776167" lon="11.1998567"><ele>38.0</ele><time>2026-05-04T09:15:08.387Z</time></trkpt><trkpt lat="43.7776167" lon="11.1999483"><ele>38.0</ele><time>2026-05-04T09:15:31.387Z</time></trkpt><trkpt lat="43.77756" lon="11.2000617"><ele>38.0</ele><time>2026-05-04T09:15:54.387Z</time></trkpt><trkpt lat="43.77758" lon="11.19997"><ele>38.0</ele><time>2026-05-04T09:16:56.386Z</time></trkpt><trkpt lat="43.7776367" lon="11.1998967"><ele>38.0</ele><time>2026-05-04T09:17:49.386Z</time></trkpt><trkpt lat="43.7777033" lon="11.1999167"><ele>38.0</ele><time>2026-05-04T09:18:08.386Z</time></trkpt><trkpt lat="43.777705" lon="11.2000167"><ele>38.0</ele><time>2026-05-04T09:18:26.386Z</time></trkpt><trkpt lat="43.7776754" lon="11.2000961"><ele>38.0</ele><time>2026-05-04T09:18:37.386Z</time></trkpt><trkpt lat="43.7776411" lon="11.2001765"><ele>38.0</ele><time>2026-05-04T09:18:49.386Z</time></trkpt><trkpt lat="43.7775936" lon="11.2002402"><ele>38.0</ele><time>2026-05-04T09:19:01.386Z</time></trkpt><trkpt lat="43.7776096" lon="11.2001457"><ele>38.0</ele><time>2026-05-04T09:20:03.385Z</time></trkpt><trkpt lat="43.7776401" lon="11.2000687"><ele>38.0</ele><time>2026-05-04T09:20:08.385Z</time></trkpt><trkpt lat="43.7777328" lon="11.2000595"><ele>38.0</ele><time>2026-05-04T09:21:02.385Z</time></trkpt><trkpt lat="43.7777914" lon="11.2000929"><ele>38.0</ele><time>2026-05-04T09:21:14.386Z</time></trkpt><trkpt lat="43.7777556" lon="11.2001813"><ele>38.0</ele><time>2026-05-04T09:21:36.385Z</time></trkpt><trkpt lat="43.7777056" lon="11.2002516"><ele>38.0</ele><time>2026-05-04T09:21:43.385Z</time></trkpt><trkpt lat="43.77765" lon="11.2003011"><ele>38.0</ele><time>2026-05-04T09:21:53.385Z</time></trkpt><trkpt lat="43.7776716" lon="11.2002188"><ele>38.0</ele><time>2026-05-04T09:22:21.385Z</time></trkpt><trkpt lat="43.7776932" lon="11.2001272"><ele>38.0</ele><time>2026-05-04T09:22:44.385Z</time></trkpt><trkpt lat="43.7776904" lon="11.1999585"><ele>38.0</ele><time>2026-05-04T09:23:23.384Z</time></trkpt><trkpt lat="43.7776357" lon="11.1999091"><ele>38.0</ele><time>2026-05-04T09:23:30.384Z</time></trkpt><trkpt lat="43.7775732" lon="11.1998711"><ele>38.0</ele><time>2026-05-04T09:23:39.384Z</time></trkpt><trkpt lat="43.7775259" lon="11.199953"><ele>38.0</ele><time>2026-05-04T09:23:48.384Z</time></trkpt><trkpt lat="43.777476" lon="11.2000082"><ele>38.0</ele><time>2026-05-04T09:23:57.384Z</time></trkpt><trkpt lat="43.7775281" lon="11.199959"><ele>38.0</ele><time>2026-05-04T09:24:19.384Z</time></trkpt><trkpt lat="43.7775595" lon="11.199873"><ele>38.0</ele><time>2026-05-04T09:24:25.384Z</time></trkpt><trkpt lat="43.77763" lon="11.1998774"><ele>38.0</ele><time>2026-05-04T09:24:34.384Z</time></trkpt><trkpt lat="43.777692" lon="11.1999157"><ele>38.0</ele><time>2026-05-04T09:24:40.384Z</time></trkpt><trkpt lat="43.777768" lon="11.199988"><ele>38.0</ele><time>2026-05-04T09:25:15.384Z</time></trkpt><trkpt lat="43.7777123" lon="11.1999365"><ele>38.0</ele><time>2026-05-04T09:25:24.384Z</time></trkpt><trkpt lat="43.7776633" lon="11.19987"><ele>38.0</ele><time>2026-05-04T09:26:47.383Z</time></trkpt><trkpt lat="43.7777033" lon="11.1997867"><ele>38.0</ele><time>2026-05-04T09:27:38.384Z</time></trkpt><trkpt lat="43.7777233" lon="11.19966"><ele>38.0</ele><time>2026-05-04T09:27:58.383Z</time></trkpt><trkpt lat="43.7777967" lon="11.199555"><ele>38.0</ele><time>2026-05-04T09:28:31.383Z</time></trkpt><trkpt lat="43.7778612" lon="11.1995149"><ele>38.0</ele><time>2026-05-04T09:28:40.383Z</time></trkpt><trkpt lat="43.7779252" lon="11.1995467"><ele>38.42857142857142</ele><time>2026-05-04T09:28:49.383Z</time></trkpt><trkpt lat="43.7779909" lon="11.1995908"><ele>38.85714285714286</ele><time>2026-05-04T09:28:59.383Z</time></trkpt><trkpt lat="43.778036" lon="11.1996568"><ele>39.285714285714285</ele><time>2026-05-04T09:29:10.383Z</time></trkpt><trkpt lat="43.7780028" lon="11.1995769"><ele>39.71428571428571</ele><time>2026-05-04T09:29:43.382Z</time></trkpt><trkpt lat="43.7779378" lon="11.1995578"><ele>40.14285714285714</ele><time>2026-05-04T09:29:51.382Z</time></trkpt><trkpt lat="43.7779014" lon="11.1996519"><ele>40.57142857142857</ele><time>2026-05-04T09:30:50.382Z</time></trkpt><trkpt lat="43.7779627" lon="11.1996888"><ele>41.0</ele><time>2026-05-04T09:31:01.42Z</time></trkpt><trkpt lat="43.7780238" lon="11.1997129"><ele>40.99999999999999</ele><time>2026-05-04T09:31:16.382Z</time></trkpt><trkpt lat="43.7779568" lon="11.1997009"><ele>41.0</ele><time>2026-05-04T09:31:45.382Z</time></trkpt><trkpt lat="43.7778962" lon="11.199666"><ele>41.0</ele><time>2026-05-04T09:32:03.382Z</time></trkpt><trkpt lat="43.7778501" lon="11.1996003"><ele>41.0</ele><time>2026-05-04T09:32:14.382Z</time></trkpt><trkpt lat="43.7779121" lon="11.1996411"><ele>41.0</ele><time>2026-05-04T09:33:43.381Z</time></trkpt><trkpt lat="43.7779825" lon="11.1996782"><ele>40.99999999999999</ele><time>2026-05-04T09:33:55.381Z</time></trkpt><trkpt lat="43.7780404" lon="11.1997326"><ele>41.0</ele><time>2026-05-04T09:34:05.381Z</time></trkpt><trkpt lat="43.778107" lon="11.1997392"><ele>41.0</ele><time>2026-05-04T09:34:12.381Z</time></trkpt><trkpt lat="43.7781909" lon="11.1996864"><ele>41.0</ele><time>2026-05-04T09:34:51.381Z</time></trkpt><trkpt lat="43.7781036" lon="11.1996769"><ele>41.0</ele><time>2026-05-04T09:35:11.381Z</time></trkpt><trkpt lat="43.7781912" lon="11.1996665"><ele>41.0</ele><time>2026-05-04T09:36:13.38Z</time></trkpt><trkpt lat="43.7782541" lon="11.1996896"><ele>41.0</ele><time>2026-05-04T09:36:24.38Z</time></trkpt><trkpt lat="43.7782555" lon="11.1997779"><ele>41.0</ele><time>2026-05-04T09:36:31.38Z</time></trkpt><trkpt lat="43.778158" lon="11.1996558"><ele>40.99999999999999</ele><time>2026-05-04T09:37:20.38Z</time></trkpt><trkpt lat="43.7781939" lon="11.1995708"><ele>41.0</ele><time>2026-05-04T09:37:28.38Z</time></trkpt><trkpt lat="43.7782489" lon="11.1995205"><ele>41.0</ele><time>2026-05-04T09:37:35.38Z</time></trkpt><trkpt lat="43.77822" lon="11.1994419"><ele>41.0</ele><time>2026-05-04T09:38:09.38Z</time></trkpt><trkpt lat="43.7781439" lon="11.1994349"><ele>41.0</ele><time>2026-05-04T09:38:16.38Z</time></trkpt><trkpt lat="43.7780891" lon="11.1993802"><ele>40.99999999999999</ele><time>2026-05-04T09:38:23.38Z</time></trkpt><trkpt lat="43.7780457" lon="11.1993151"><ele>41.0</ele><time>2026-05-04T09:38:33.38Z</time></trkpt><trkpt lat="43.7781288" lon="11.1993522"><ele>41.0</ele><time>2026-05-04T09:39:36.379Z</time></trkpt><trkpt lat="43.778193" lon="11.199402"><ele>41.0</ele><time>2026-05-04T09:40:01.38Z</time></trkpt><trkpt lat="43.7782811" lon="11.1994144"><ele>41.0</ele><time>2026-05-04T09:41:08.379Z</time></trkpt><trkpt lat="43.7782902" lon="11.1995411"><ele>41.0</ele><time>2026-05-04T09:41:41.379Z</time></trkpt><trkpt lat="43.7782532" lon="11.1996125"><ele>41.0</ele><time>2026-05-04T09:41:45.379Z</time></trkpt><trkpt lat="43.7782043" lon="11.1996995"><ele>41.0</ele><time>2026-05-04T09:41:55.38Z</time></trkpt><trkpt lat="43.7781618" lon="11.1997684"><ele>40.99999999999999</ele><time>2026-05-04T09:42:01.379Z</time></trkpt><trkpt lat="43.7780978" lon="11.1998024"><ele>41.0</ele><time>2026-05-04T09:42:07.379Z</time></trkpt><trkpt lat="43.7780328" lon="11.1998289"><ele>41.0</ele><time>2026-05-04T09:42:13.379Z</time></trkpt><trkpt lat="43.7779926" lon="11.1999062"><ele>41.0</ele><time>2026-05-04T09:42:20.379Z</time></trkpt><trkpt lat="43.7779694" lon="11.200001"><ele>41.0</ele><time>2026-05-04T09:42:26.378Z</time></trkpt><trkpt lat="43.7779572" lon="11.2000921"><ele>40.99999999999999</ele><time>2026-05-04T09:42:33.378Z</time></trkpt><trkpt lat="43.7779257" lon="11.2001854"><ele>41.0</ele><time>2026-05-04T09:42:41.378Z</time></trkpt><trkpt lat="43.7778979" lon="11.2002646"><ele>40.857142857142854</ele><time>2026-05-04T09:42:54.378Z</time></trkpt><trkpt lat="43.7779036" lon="11.200356"><ele>40.714285714285715</ele><time>2026-05-04T09:43:14.378Z</time></trkpt><trkpt lat="43.7778104" lon="11.2004053"><ele>40.57142857142857</ele><time>2026-05-04T09:43:37.378Z</time></trkpt><trkpt lat="43.7777522" lon="11.2003665"><ele>40.42857142857143</ele><time>2026-05-04T09:43:52.378Z</time></trkpt><trkpt lat="43.7776956" lon="11.200323"><ele>40.285714285714285</ele><time>2026-05-04T09:44:06.378Z</time></trkpt><trkpt lat="43.777775" lon="11.200355"><ele>40.14285714285714</ele><time>2026-05-04T09:44:41.378Z</time></trkpt><trkpt lat="43.7778368" lon="11.2003844"><ele>40.0</ele><time>2026-05-04T09:45:22.378Z</time></trkpt><trkpt lat="43.7779021" lon="11.2002867"><ele>40.0</ele><time>2026-05-04T09:46:03.377Z</time></trkpt><trkpt lat="43.7779114" lon="11.2001979"><ele>40.0</ele><time>2026-05-04T09:46:08.377Z</time></trkpt><trkpt lat="43.7779316" lon="11.2001005"><ele>40.0</ele><time>2026-05-04T09:46:15.378Z</time></trkpt><trkpt lat="43.7778829" lon="11.2000392"><ele>40.0</ele><time>2026-05-04T09:46:21.377Z</time></trkpt><trkpt lat="43.7778182" lon="11.2000625"><ele>40.0</ele><time>2026-05-04T09:46:30.378Z</time></trkpt><trkpt lat="43.7777359" lon="11.2000193"><ele>40.0</ele><time>2026-05-04T09:47:48.377Z</time></trkpt><trkpt lat="43.7777084" lon="11.1999353"><ele>40.0</ele><time>2026-05-04T09:47:56.377Z</time></trkpt><trkpt lat="43.7777585" lon="11.1999929"><ele>40.0</ele><time>2026-05-04T09:49:44.376Z</time></trkpt><trkpt lat="43.7778291" lon="11.2000263"><ele>40.0</ele><time>2026-05-04T09:49:50.377Z</time></trkpt><trkpt lat="43.7778886" lon="11.2000685"><ele>40.0</ele><time>2026-05-04T09:49:57.376Z</time></trkpt><trkpt lat="43.7779451" lon="11.2001145"><ele>40.0</ele><time>2026-05-04T09:50:04.376Z</time></trkpt><trkpt lat="43.7780354" lon="11.2001267"><ele>40.0</ele><time>2026-05-04T09:50:29.376Z</time></trkpt><trkpt lat="43.7780179" lon="11.2000042"><ele>40.0</ele><time>2026-05-04T09:50:53.376Z</time></trkpt><trkpt lat="43.777956" lon="11.1999414"><ele>40.0</ele><time>2026-05-04T09:50:58.376Z</time></trkpt><trkpt lat="43.7779847" lon="11.2000444"><ele>40.0</ele><time>2026-05-04T09:51:04.376Z</time></trkpt><trkpt lat="43.7780721" lon="11.2001448"><ele>40.0</ele><time>2026-05-04T09:51:34.376Z</time></trkpt><trkpt lat="43.7780086" lon="11.2001821"><ele>40.0</ele><time>2026-05-04T09:51:50.376Z</time></trkpt><trkpt lat="43.7780721" lon="11.2001543"><ele>40.0</ele><time>2026-05-04T09:52:12.375Z</time></trkpt><trkpt lat="43.778003" lon="11.2001263"><ele>40.0</ele><time>2026-05-04T09:52:44.376Z</time></trkpt><trkpt lat="43.7779307" lon="11.2000559"><ele>40.0</ele><time>2026-05-04T09:53:47.375Z</time></trkpt><trkpt lat="43.7779783" lon="11.1999783"><ele>40.0</ele><time>2026-05-04T09:54:14.375Z</time></trkpt><trkpt lat="43.7779717" lon="11.2001383"><ele>40.0</ele><time>2026-05-04T09:55:20.375Z</time></trkpt><trkpt lat="43.7780433" lon="11.2000667"><ele>40.0</ele><time>2026-05-04T09:56:54.374Z</time></trkpt><trkpt lat="43.7780367" lon="11.2001633"><ele>40.0</ele><time>2026-05-04T09:57:25.375Z</time></trkpt><trkpt lat="43.7779917" lon="11.2000717"><ele>40.0</ele><time>2026-05-04T09:57:53.374Z</time></trkpt><trkpt lat="43.7779433" lon="11.20015"><ele>40.0</ele><time>2026-05-04T09:58:06.374Z</time></trkpt><trkpt lat="43.7779067" lon="11.200245"><ele>40.0</ele><time>2026-05-04T09:58:09.374Z</time></trkpt><trkpt lat="43.7779433" lon="11.2003817"><ele>40.0</ele><time>2026-05-04T09:58:11.374Z</time></trkpt><trkpt lat="43.77797" lon="11.2002583"><ele>40.0</ele><time>2026-05-04T09:58:16.374Z</time></trkpt><trkpt lat="43.77797" lon="11.20017"><ele>40.0</ele><time>2026-05-04T09:58:21.374Z</time></trkpt><trkpt lat="43.7779085" lon="11.2001196"><ele>40.0</ele><time>2026-05-04T09:59:10.373Z</time></trkpt><trkpt lat="43.777949" lon="11.2001937"><ele>40.0</ele><time>2026-05-04T09:59:19.373Z</time></trkpt><trkpt lat="43.7778778" lon="11.2001074"><ele>40.0</ele><time>2026-05-04T09:59:32.373Z</time></trkpt><trkpt lat="43.7778181" lon="11.2000658"><ele>40.0</ele><time>2026-05-04T09:59:37.373Z</time></trkpt><trkpt lat="43.7777617" lon="11.2000207"><ele>40.0</ele><time>2026-05-04T09:59:43.373Z</time></trkpt><trkpt lat="43.7777071" lon="11.1999663"><ele>40.0</ele><time>2026-05-04T09:59:51.373Z</time></trkpt><trkpt lat="43.7776691" lon="11.1998896"><ele>40.0</ele><time>2026-05-04T10:00:00.373Z</time></trkpt><trkpt lat="43.7775944" lon="11.199907"><ele>40.0</ele><time>2026-05-04T10:00:08.373Z</time></trkpt><trkpt lat="43.777534" lon="11.1999427"><ele>39.714285714285715</ele><time>2026-05-04T10:00:21.373Z</time></trkpt><trkpt lat="43.7774639" lon="11.2000352"><ele>39.42857142857143</ele><time>2026-05-04T10:00:55.373Z</time></trkpt><trkpt lat="43.7774637" lon="11.200125"><ele>39.14285714285714</ele><time>2026-05-04T10:01:01.374Z</time></trkpt><trkpt lat="43.7774578" lon="11.2000335"><ele>38.85714285714286</ele><time>2026-05-04T10:01:24.373Z</time></trkpt><trkpt lat="43.7774845" lon="11.1999485"><ele>38.57142857142858</ele><time>2026-05-04T10:01:39.373Z</time></trkpt><trkpt lat="43.7775021" lon="11.1998639"><ele>38.285714285714285</ele><time>2026-05-04T10:06:45.371Z</time></trkpt><trkpt lat="43.7774831" lon="11.1999495"><ele>38.0</ele><time>2026-05-04T10:07:00.371Z</time></trkpt><trkpt lat="43.7774706" lon="11.2000395"><ele>38.0</ele><time>2026-05-04T10:07:09.371Z</time></trkpt><trkpt lat="43.7774547" lon="11.2001306"><ele>38.0</ele><time>2026-05-04T10:07:15.371Z</time></trkpt><trkpt lat="43.7774575" lon="11.2000347"><ele>38.0</ele><time>2026-05-04T10:07:29.371Z</time></trkpt><trkpt lat="43.7774867" lon="11.1999464"><ele>38.0</ele><time>2026-05-04T10:08:50.371Z</time></trkpt><trkpt lat="43.7775031" lon="11.2000314"><ele>38.0</ele><time>2026-05-04T10:10:49.371Z</time></trkpt><trkpt lat="43.7774499" lon="11.2000983"><ele>38.0</ele><time>2026-05-04T10:10:58.371Z</time></trkpt><trkpt lat="43.7774717" lon="11.2000104"><ele>38.0</ele><time>2026-05-04T10:11:18.372Z</time></trkpt><trkpt lat="43.7774832" lon="11.2001305"><ele>38.0</ele><time>2026-05-04T10:11:41.37Z</time></trkpt><trkpt lat="43.7774722" lon="11.2000371"><ele>38.0</ele><time>2026-05-04T10:12:49.371Z</time></trkpt><trkpt lat="43.7774934" lon="11.1999444"><ele>38.0</ele><time>2026-05-04T10:12:56.371Z</time></trkpt><trkpt lat="43.7775624" lon="11.1998504"><ele>38.0</ele><time>2026-05-04T10:13:25.37Z</time></trkpt><trkpt lat="43.7775129" lon="11.1999241"><ele>38.0</ele><time>2026-05-04T10:14:40.37Z</time></trkpt><trkpt lat="43.7774817" lon="11.2000333"><ele>38.0</ele><time>2026-05-04T10:17:36.369Z</time></trkpt><trkpt lat="43.777495" lon="11.1999417"><ele>38.0</ele><time>2026-05-04T10:21:49.369Z</time></trkpt><trkpt lat="43.7774917" lon="11.2000317"><ele>38.0</ele><time>2026-05-04T10:24:51.368Z</time></trkpt><trkpt lat="43.7775267" lon="11.1999333"><ele>38.0</ele><time>2026-05-04T10:25:04.368Z</time></trkpt><trkpt lat="43.7775533" lon="11.1998433"><ele>38.0</ele><time>2026-05-04T10:28:25.368Z</time></trkpt><trkpt lat="43.7776729" lon="11.1998535"><ele>38.0</ele><time>2026-05-04T10:28:58.368Z</time></trkpt><trkpt lat="43.7777215" lon="11.1999133"><ele>38.0</ele><time>2026-05-04T10:29:07.368Z</time></trkpt><trkpt lat="43.7777668" lon="11.1999811"><ele>40.0</ele><time>2026-05-04T10:29:16.368Z</time></trkpt><trkpt lat="43.7778324" lon="11.2000248"><ele>40.0</ele><time>2026-05-04T10:29:23.368Z</time></trkpt><trkpt lat="43.7778968" lon="11.2000713"><ele>40.0</ele><time>2026-05-04T10:29:32.368Z</time></trkpt><trkpt lat="43.7779568" lon="11.2001178"><ele>40.0</ele><time>2026-05-04T10:29:38.368Z</time></trkpt><trkpt lat="43.7780192" lon="11.2001804"><ele>40.0</ele><time>2026-05-04T10:30:18.367Z</time></trkpt><trkpt lat="43.7779434" lon="11.2001768"><ele>40.0</ele><time>2026-05-04T10:30:34.367Z</time></trkpt></trkseg></trk></gpx>